<?xml version="1.0" encoding="UTF-8" standalone="no" ?>
<gpx xmlns="http://www.topografix.com/GPX/1/1" xmlns:xsi="http://www.w3.org/2001/XMLSchema-instance" xsi:schemaLocation="http://www.topografix.com/GPX/1/1 http://www.topografix.com/GPX/1/1/gpx.xsd" version="1.1" creator="VisuGPX - https://www.visugpx.com">
  <metadata>
    <name>RSPFY-poteau de la Poterie</name>
    <desc><![CDATA[marche nordique partant du poteau de la Poterie et passant par le carrefour Fanny, le point de vue sur la vallée (161m) et le carrefour des Jumelles.]]></desc>
  </metadata>
  <trk>
    <name><![CDATA[2026-02-17 09:06]]></name>
    <desc><![CDATA[<p>Heure de départ: 09:06 17 févr. 2026<br/>Heure d'arrivée: 11:18 17 févr. 2026<br/>Distance: 10,6 km (02:11)<br/>Temps déplacement: 02:00<br/>Vitesse moyenne: 4,81 km/h<br/>Vitesse moyenne mouv.: 5,26 km/h<br/>Vitesse Max.: 7,09 km/h<br/>Altitude minimale: 100 m<br/>Altitude maximale: 162 m<br/>Vitesse de montée: 181,1 m/h<br/>Vitesse de descente: -169,6 m/h<br/>Gain d'altitude: 185 m<br/>Perte d'altitude: -192 m<br/>Temps de montée: 01:01<br/>Temps de descente: 01:08<br/></p><hr align="center" width="480" style="height: 2px; width: 517px"/>]]></desc>
    <trkseg>
      <trkpt lat="48.60672" lon="1.9498">
        <ele>111</ele>
        <time>2026-02-17T08:06:11Z</time>
      </trkpt>
      <trkpt lat="48.60666" lon="1.9499">
        <ele>111</ele>
        <time>2026-02-17T08:06:20Z</time>
      </trkpt>
      <trkpt lat="48.60659" lon="1.94999">
        <ele>111</ele>
        <time>2026-02-17T08:06:29Z</time>
      </trkpt>
      <trkpt lat="48.60656" lon="1.95013">
        <ele>111</ele>
        <time>2026-02-17T08:06:36Z</time>
      </trkpt>
      <trkpt lat="48.6065" lon="1.95024">
        <ele>111</ele>
        <time>2026-02-17T08:06:44Z</time>
      </trkpt>
      <trkpt lat="48.60643" lon="1.95035">
        <ele>111</ele>
        <time>2026-02-17T08:06:52Z</time>
      </trkpt>
      <trkpt lat="48.60639" lon="1.95048">
        <ele>111</ele>
        <time>2026-02-17T08:06:59Z</time>
      </trkpt>
      <trkpt lat="48.60633" lon="1.9506">
        <ele>111</ele>
        <time>2026-02-17T08:07:07Z</time>
      </trkpt>
      <trkpt lat="48.60628" lon="1.95073">
        <ele>111</ele>
        <time>2026-02-17T08:07:15Z</time>
      </trkpt>
      <trkpt lat="48.6062" lon="1.95082">
        <ele>111</ele>
        <time>2026-02-17T08:07:23Z</time>
      </trkpt>
      <trkpt lat="48.60615" lon="1.95096">
        <ele>111</ele>
        <time>2026-02-17T08:07:31Z</time>
      </trkpt>
      <trkpt lat="48.6061" lon="1.95108">
        <ele>111</ele>
        <time>2026-02-17T08:07:38Z</time>
      </trkpt>
      <trkpt lat="48.60605" lon="1.95119">
        <ele>111</ele>
        <time>2026-02-17T08:07:45Z</time>
      </trkpt>
      <trkpt lat="48.60599" lon="1.95129">
        <ele>111</ele>
        <time>2026-02-17T08:07:52Z</time>
      </trkpt>
      <trkpt lat="48.60592" lon="1.9514">
        <ele>111</ele>
        <time>2026-02-17T08:07:59Z</time>
      </trkpt>
      <trkpt lat="48.60586" lon="1.95152">
        <ele>111</ele>
        <time>2026-02-17T08:08:06Z</time>
      </trkpt>
      <trkpt lat="48.60579" lon="1.95163">
        <ele>111</ele>
        <time>2026-02-17T08:08:15Z</time>
      </trkpt>
      <trkpt lat="48.6057" lon="1.95161">
        <ele>111</ele>
        <time>2026-02-17T08:08:24Z</time>
      </trkpt>
      <trkpt lat="48.60562" lon="1.9515">
        <ele>111</ele>
        <time>2026-02-17T08:08:31Z</time>
      </trkpt>
      <trkpt lat="48.60555" lon="1.95143">
        <ele>111</ele>
        <time>2026-02-17T08:08:37Z</time>
      </trkpt>
      <trkpt lat="48.60547" lon="1.95133">
        <ele>111.3</ele>
        <time>2026-02-17T08:08:46Z</time>
      </trkpt>
      <trkpt lat="48.6054" lon="1.95123">
        <ele>111.6</ele>
        <time>2026-02-17T08:08:55Z</time>
      </trkpt>
      <trkpt lat="48.60538" lon="1.95108">
        <ele>111.6</ele>
        <time>2026-02-17T08:09:02Z</time>
      </trkpt>
      <trkpt lat="48.60534" lon="1.95094">
        <ele>111.8</ele>
        <time>2026-02-17T08:09:09Z</time>
      </trkpt>
      <trkpt lat="48.60529" lon="1.95083">
        <ele>112</ele>
        <time>2026-02-17T08:09:15Z</time>
      </trkpt>
      <trkpt lat="48.60522" lon="1.95072">
        <ele>112</ele>
        <time>2026-02-17T08:09:22Z</time>
      </trkpt>
      <trkpt lat="48.60517" lon="1.95059">
        <ele>112</ele>
        <time>2026-02-17T08:09:30Z</time>
      </trkpt>
      <trkpt lat="48.60508" lon="1.95064">
        <ele>112</ele>
        <time>2026-02-17T08:09:38Z</time>
      </trkpt>
      <trkpt lat="48.60499" lon="1.95057">
        <ele>112</ele>
        <time>2026-02-17T08:09:46Z</time>
      </trkpt>
      <trkpt lat="48.6049" lon="1.95053">
        <ele>112</ele>
        <time>2026-02-17T08:09:55Z</time>
      </trkpt>
      <trkpt lat="48.60481" lon="1.95055">
        <ele>112</ele>
        <time>2026-02-17T08:10:09Z</time>
      </trkpt>
      <trkpt lat="48.60471" lon="1.95056">
        <ele>112</ele>
        <time>2026-02-17T08:10:14Z</time>
      </trkpt>
      <trkpt lat="48.60462" lon="1.95062">
        <ele>112.3</ele>
        <time>2026-02-17T08:10:20Z</time>
      </trkpt>
      <trkpt lat="48.60454" lon="1.95068">
        <ele>112.4</ele>
        <time>2026-02-17T08:10:26Z</time>
      </trkpt>
      <trkpt lat="48.60444" lon="1.95073">
        <ele>112.4</ele>
        <time>2026-02-17T08:10:33Z</time>
      </trkpt>
      <trkpt lat="48.60435" lon="1.95079">
        <ele>112.4</ele>
        <time>2026-02-17T08:10:40Z</time>
      </trkpt>
      <trkpt lat="48.60426" lon="1.95081">
        <ele>112.7</ele>
        <time>2026-02-17T08:10:47Z</time>
      </trkpt>
      <trkpt lat="48.60417" lon="1.95084">
        <ele>113</ele>
        <time>2026-02-17T08:10:54Z</time>
      </trkpt>
      <trkpt lat="48.60409" lon="1.9509">
        <ele>113</ele>
        <time>2026-02-17T08:11:02Z</time>
      </trkpt>
      <trkpt lat="48.604" lon="1.95095">
        <ele>113</ele>
        <time>2026-02-17T08:11:09Z</time>
      </trkpt>
      <trkpt lat="48.6039" lon="1.95098">
        <ele>113</ele>
        <time>2026-02-17T08:11:16Z</time>
      </trkpt>
      <trkpt lat="48.60382" lon="1.95102">
        <ele>113</ele>
        <time>2026-02-17T08:11:22Z</time>
      </trkpt>
      <trkpt lat="48.60373" lon="1.95109">
        <ele>113</ele>
        <time>2026-02-17T08:11:29Z</time>
      </trkpt>
      <trkpt lat="48.60365" lon="1.95115">
        <ele>113</ele>
        <time>2026-02-17T08:11:35Z</time>
      </trkpt>
      <trkpt lat="48.60355" lon="1.95118">
        <ele>113</ele>
        <time>2026-02-17T08:11:42Z</time>
      </trkpt>
      <trkpt lat="48.60345" lon="1.95123">
        <ele>113</ele>
        <time>2026-02-17T08:11:49Z</time>
      </trkpt>
      <trkpt lat="48.60336" lon="1.95127">
        <ele>113</ele>
        <time>2026-02-17T08:11:55Z</time>
      </trkpt>
      <trkpt lat="48.60327" lon="1.95134">
        <ele>113</ele>
        <time>2026-02-17T08:12:02Z</time>
      </trkpt>
      <trkpt lat="48.60318" lon="1.95137">
        <ele>113</ele>
        <time>2026-02-17T08:12:09Z</time>
      </trkpt>
      <trkpt lat="48.60309" lon="1.95142">
        <ele>113</ele>
        <time>2026-02-17T08:12:16Z</time>
      </trkpt>
      <trkpt lat="48.603" lon="1.95143">
        <ele>113</ele>
        <time>2026-02-17T08:12:23Z</time>
      </trkpt>
      <trkpt lat="48.60292" lon="1.9515">
        <ele>113</ele>
        <time>2026-02-17T08:12:30Z</time>
      </trkpt>
      <trkpt lat="48.60283" lon="1.95156">
        <ele>113</ele>
        <time>2026-02-17T08:12:37Z</time>
      </trkpt>
      <trkpt lat="48.60274" lon="1.95162">
        <ele>113</ele>
        <time>2026-02-17T08:12:44Z</time>
      </trkpt>
      <trkpt lat="48.60265" lon="1.95167">
        <ele>113</ele>
        <time>2026-02-17T08:12:51Z</time>
      </trkpt>
      <trkpt lat="48.60255" lon="1.95171">
        <ele>113</ele>
        <time>2026-02-17T08:12:58Z</time>
      </trkpt>
      <trkpt lat="48.60245" lon="1.95175">
        <ele>113</ele>
        <time>2026-02-17T08:13:05Z</time>
      </trkpt>
      <trkpt lat="48.60236" lon="1.95181">
        <ele>113</ele>
        <time>2026-02-17T08:13:14Z</time>
      </trkpt>
      <trkpt lat="48.60227" lon="1.95184">
        <ele>113</ele>
        <time>2026-02-17T08:13:22Z</time>
      </trkpt>
      <trkpt lat="48.60218" lon="1.95188">
        <ele>113</ele>
        <time>2026-02-17T08:13:28Z</time>
      </trkpt>
      <trkpt lat="48.60209" lon="1.95193">
        <ele>113</ele>
        <time>2026-02-17T08:13:34Z</time>
      </trkpt>
      <trkpt lat="48.602" lon="1.95198">
        <ele>113</ele>
        <time>2026-02-17T08:13:40Z</time>
      </trkpt>
      <trkpt lat="48.6019" lon="1.95202">
        <ele>113</ele>
        <time>2026-02-17T08:13:47Z</time>
      </trkpt>
      <trkpt lat="48.60182" lon="1.95207">
        <ele>113</ele>
        <time>2026-02-17T08:13:53Z</time>
      </trkpt>
      <trkpt lat="48.60172" lon="1.95212">
        <ele>113</ele>
        <time>2026-02-17T08:14:00Z</time>
      </trkpt>
      <trkpt lat="48.60164" lon="1.95216">
        <ele>113</ele>
        <time>2026-02-17T08:14:06Z</time>
      </trkpt>
      <trkpt lat="48.60154" lon="1.95221">
        <ele>113</ele>
        <time>2026-02-17T08:14:13Z</time>
      </trkpt>
      <trkpt lat="48.60144" lon="1.95227">
        <ele>113</ele>
        <time>2026-02-17T08:14:20Z</time>
      </trkpt>
      <trkpt lat="48.60135" lon="1.95231">
        <ele>113</ele>
        <time>2026-02-17T08:14:27Z</time>
      </trkpt>
      <trkpt lat="48.60126" lon="1.95235">
        <ele>113</ele>
        <time>2026-02-17T08:14:34Z</time>
      </trkpt>
      <trkpt lat="48.60116" lon="1.9524">
        <ele>113</ele>
        <time>2026-02-17T08:14:41Z</time>
      </trkpt>
      <trkpt lat="48.60107" lon="1.95244">
        <ele>113</ele>
        <time>2026-02-17T08:14:48Z</time>
      </trkpt>
      <trkpt lat="48.60099" lon="1.95248">
        <ele>113</ele>
        <time>2026-02-17T08:14:54Z</time>
      </trkpt>
      <trkpt lat="48.60092" lon="1.95258">
        <ele>113</ele>
        <time>2026-02-17T08:15:01Z</time>
      </trkpt>
      <trkpt lat="48.60086" lon="1.95269">
        <ele>113</ele>
        <time>2026-02-17T08:15:08Z</time>
      </trkpt>
      <trkpt lat="48.60078" lon="1.9528">
        <ele>112.9</ele>
        <time>2026-02-17T08:15:15Z</time>
      </trkpt>
      <trkpt lat="48.6007" lon="1.95286">
        <ele>112.8</ele>
        <time>2026-02-17T08:15:21Z</time>
      </trkpt>
      <trkpt lat="48.60063" lon="1.95277">
        <ele>113</ele>
        <time>2026-02-17T08:15:27Z</time>
      </trkpt>
      <trkpt lat="48.60053" lon="1.95275">
        <ele>113</ele>
        <time>2026-02-17T08:15:36Z</time>
      </trkpt>
      <trkpt lat="48.60045" lon="1.95283">
        <ele>113</ele>
        <time>2026-02-17T08:15:44Z</time>
      </trkpt>
      <trkpt lat="48.60037" lon="1.95292">
        <ele>113</ele>
        <time>2026-02-17T08:15:51Z</time>
      </trkpt>
      <trkpt lat="48.6004" lon="1.95306">
        <ele>113</ele>
        <time>2026-02-17T08:16:00Z</time>
      </trkpt>
      <trkpt lat="48.60047" lon="1.95317">
        <ele>113</ele>
        <time>2026-02-17T08:16:09Z</time>
      </trkpt>
      <trkpt lat="48.6004" lon="1.95327">
        <ele>113</ele>
        <time>2026-02-17T08:16:17Z</time>
      </trkpt>
      <trkpt lat="48.60034" lon="1.95339">
        <ele>113</ele>
        <time>2026-02-17T08:16:25Z</time>
      </trkpt>
      <trkpt lat="48.60028" lon="1.95351">
        <ele>113</ele>
        <time>2026-02-17T08:16:32Z</time>
      </trkpt>
      <trkpt lat="48.60023" lon="1.95364">
        <ele>113.3</ele>
        <time>2026-02-17T08:16:39Z</time>
      </trkpt>
      <trkpt lat="48.60016" lon="1.95375">
        <ele>113.7</ele>
        <time>2026-02-17T08:16:45Z</time>
      </trkpt>
      <trkpt lat="48.60011" lon="1.95388">
        <ele>114</ele>
        <time>2026-02-17T08:16:52Z</time>
      </trkpt>
      <trkpt lat="48.60006" lon="1.95399">
        <ele>114</ele>
        <time>2026-02-17T08:16:58Z</time>
      </trkpt>
      <trkpt lat="48.6" lon="1.95412">
        <ele>114</ele>
        <time>2026-02-17T08:17:05Z</time>
      </trkpt>
      <trkpt lat="48.59995" lon="1.95425">
        <ele>114.2</ele>
        <time>2026-02-17T08:17:12Z</time>
      </trkpt>
      <trkpt lat="48.59989" lon="1.95436">
        <ele>114.4</ele>
        <time>2026-02-17T08:17:18Z</time>
      </trkpt>
      <trkpt lat="48.59983" lon="1.95448">
        <ele>114.7</ele>
        <time>2026-02-17T08:17:25Z</time>
      </trkpt>
      <trkpt lat="48.59978" lon="1.9546">
        <ele>115.3</ele>
        <time>2026-02-17T08:17:32Z</time>
      </trkpt>
      <trkpt lat="48.59972" lon="1.95471">
        <ele>115.9</ele>
        <time>2026-02-17T08:17:38Z</time>
      </trkpt>
      <trkpt lat="48.59966" lon="1.95483">
        <ele>116.8</ele>
        <time>2026-02-17T08:17:46Z</time>
      </trkpt>
      <trkpt lat="48.59961" lon="1.95494">
        <ele>117.6</ele>
        <time>2026-02-17T08:17:52Z</time>
      </trkpt>
      <trkpt lat="48.59955" lon="1.95507">
        <ele>118.5</ele>
        <time>2026-02-17T08:17:59Z</time>
      </trkpt>
      <trkpt lat="48.59949" lon="1.95518">
        <ele>119.3</ele>
        <time>2026-02-17T08:18:06Z</time>
      </trkpt>
      <trkpt lat="48.59944" lon="1.95529">
        <ele>120.1</ele>
        <time>2026-02-17T08:18:13Z</time>
      </trkpt>
      <trkpt lat="48.59939" lon="1.95541">
        <ele>120.4</ele>
        <time>2026-02-17T08:18:21Z</time>
      </trkpt>
      <trkpt lat="48.59934" lon="1.95553">
        <ele>120.6</ele>
        <time>2026-02-17T08:18:29Z</time>
      </trkpt>
      <trkpt lat="48.59928" lon="1.95564">
        <ele>120.6</ele>
        <time>2026-02-17T08:18:37Z</time>
      </trkpt>
      <trkpt lat="48.59923" lon="1.95577">
        <ele>120.8</ele>
        <time>2026-02-17T08:18:44Z</time>
      </trkpt>
      <trkpt lat="48.59918" lon="1.95589">
        <ele>121.2</ele>
        <time>2026-02-17T08:18:52Z</time>
      </trkpt>
      <trkpt lat="48.59912" lon="1.95601">
        <ele>121.5</ele>
        <time>2026-02-17T08:19:00Z</time>
      </trkpt>
      <trkpt lat="48.59907" lon="1.95614">
        <ele>121.7</ele>
        <time>2026-02-17T08:19:08Z</time>
      </trkpt>
      <trkpt lat="48.59902" lon="1.95627">
        <ele>122</ele>
        <time>2026-02-17T08:19:15Z</time>
      </trkpt>
      <trkpt lat="48.59897" lon="1.95639">
        <ele>122.3</ele>
        <time>2026-02-17T08:19:22Z</time>
      </trkpt>
      <trkpt lat="48.5989" lon="1.9565">
        <ele>122.4</ele>
        <time>2026-02-17T08:19:29Z</time>
      </trkpt>
      <trkpt lat="48.59884" lon="1.95663">
        <ele>122.5</ele>
        <time>2026-02-17T08:19:36Z</time>
      </trkpt>
      <trkpt lat="48.59878" lon="1.95674">
        <ele>122.3</ele>
        <time>2026-02-17T08:19:43Z</time>
      </trkpt>
      <trkpt lat="48.59873" lon="1.95687">
        <ele>122.3</ele>
        <time>2026-02-17T08:19:49Z</time>
      </trkpt>
      <trkpt lat="48.59868" lon="1.95699">
        <ele>122.4</ele>
        <time>2026-02-17T08:19:56Z</time>
      </trkpt>
      <trkpt lat="48.59862" lon="1.95711">
        <ele>122.6</ele>
        <time>2026-02-17T08:20:03Z</time>
      </trkpt>
      <trkpt lat="48.59856" lon="1.95722">
        <ele>122.8</ele>
        <time>2026-02-17T08:20:09Z</time>
      </trkpt>
      <trkpt lat="48.5985" lon="1.95736">
        <ele>122.8</ele>
        <time>2026-02-17T08:20:16Z</time>
      </trkpt>
      <trkpt lat="48.59844" lon="1.95746">
        <ele>122.9</ele>
        <time>2026-02-17T08:20:22Z</time>
      </trkpt>
      <trkpt lat="48.59839" lon="1.95758">
        <ele>123.1</ele>
        <time>2026-02-17T08:20:29Z</time>
      </trkpt>
      <trkpt lat="48.59834" lon="1.9577">
        <ele>123</ele>
        <time>2026-02-17T08:20:36Z</time>
      </trkpt>
      <trkpt lat="48.59827" lon="1.95781">
        <ele>123.1</ele>
        <time>2026-02-17T08:20:44Z</time>
      </trkpt>
      <trkpt lat="48.59822" lon="1.95793">
        <ele>123.3</ele>
        <time>2026-02-17T08:20:51Z</time>
      </trkpt>
      <trkpt lat="48.59815" lon="1.95804">
        <ele>123.3</ele>
        <time>2026-02-17T08:20:59Z</time>
      </trkpt>
      <trkpt lat="48.5981" lon="1.95817">
        <ele>123.6</ele>
        <time>2026-02-17T08:21:06Z</time>
      </trkpt>
      <trkpt lat="48.59804" lon="1.95828">
        <ele>123.8</ele>
        <time>2026-02-17T08:21:13Z</time>
      </trkpt>
      <trkpt lat="48.59799" lon="1.95841">
        <ele>124.3</ele>
        <time>2026-02-17T08:21:20Z</time>
      </trkpt>
      <trkpt lat="48.59792" lon="1.9585">
        <ele>124.6</ele>
        <time>2026-02-17T08:21:27Z</time>
      </trkpt>
      <trkpt lat="48.59787" lon="1.95863">
        <ele>125.1</ele>
        <time>2026-02-17T08:21:34Z</time>
      </trkpt>
      <trkpt lat="48.59783" lon="1.95875">
        <ele>125.6</ele>
        <time>2026-02-17T08:21:41Z</time>
      </trkpt>
      <trkpt lat="48.59777" lon="1.95888">
        <ele>126</ele>
        <time>2026-02-17T08:21:48Z</time>
      </trkpt>
      <trkpt lat="48.59772" lon="1.959">
        <ele>126.2</ele>
        <time>2026-02-17T08:21:55Z</time>
      </trkpt>
      <trkpt lat="48.59767" lon="1.95913">
        <ele>126.5</ele>
        <time>2026-02-17T08:22:02Z</time>
      </trkpt>
      <trkpt lat="48.59761" lon="1.95924">
        <ele>126.8</ele>
        <time>2026-02-17T08:22:09Z</time>
      </trkpt>
      <trkpt lat="48.59756" lon="1.95936">
        <ele>127.5</ele>
        <time>2026-02-17T08:22:16Z</time>
      </trkpt>
      <trkpt lat="48.5975" lon="1.95948">
        <ele>128.1</ele>
        <time>2026-02-17T08:22:23Z</time>
      </trkpt>
      <trkpt lat="48.59744" lon="1.95959">
        <ele>128.3</ele>
        <time>2026-02-17T08:22:31Z</time>
      </trkpt>
      <trkpt lat="48.59739" lon="1.95972">
        <ele>128.6</ele>
        <time>2026-02-17T08:22:38Z</time>
      </trkpt>
      <trkpt lat="48.59733" lon="1.95982">
        <ele>128.7</ele>
        <time>2026-02-17T08:22:45Z</time>
      </trkpt>
      <trkpt lat="48.59728" lon="1.95994">
        <ele>129</ele>
        <time>2026-02-17T08:22:52Z</time>
      </trkpt>
      <trkpt lat="48.59719" lon="1.96002">
        <ele>129</ele>
        <time>2026-02-17T08:23:00Z</time>
      </trkpt>
      <trkpt lat="48.59717" lon="1.96016">
        <ele>129.4</ele>
        <time>2026-02-17T08:23:07Z</time>
      </trkpt>
      <trkpt lat="48.59713" lon="1.96029">
        <ele>129.7</ele>
        <time>2026-02-17T08:23:14Z</time>
      </trkpt>
      <trkpt lat="48.59707" lon="1.96042">
        <ele>130.2</ele>
        <time>2026-02-17T08:23:21Z</time>
      </trkpt>
      <trkpt lat="48.59702" lon="1.96054">
        <ele>130.9</ele>
        <time>2026-02-17T08:23:28Z</time>
      </trkpt>
      <trkpt lat="48.59696" lon="1.96067">
        <ele>132.2</ele>
        <time>2026-02-17T08:23:35Z</time>
      </trkpt>
      <trkpt lat="48.5969" lon="1.96079">
        <ele>133.5</ele>
        <time>2026-02-17T08:23:43Z</time>
      </trkpt>
      <trkpt lat="48.59684" lon="1.96091">
        <ele>134.5</ele>
        <time>2026-02-17T08:23:50Z</time>
      </trkpt>
      <trkpt lat="48.59679" lon="1.96103">
        <ele>135.4</ele>
        <time>2026-02-17T08:23:58Z</time>
      </trkpt>
      <trkpt lat="48.59673" lon="1.96114">
        <ele>136.2</ele>
        <time>2026-02-17T08:24:06Z</time>
      </trkpt>
      <trkpt lat="48.59668" lon="1.96127">
        <ele>137.1</ele>
        <time>2026-02-17T08:24:14Z</time>
      </trkpt>
      <trkpt lat="48.59663" lon="1.9614">
        <ele>137.9</ele>
        <time>2026-02-17T08:24:22Z</time>
      </trkpt>
      <trkpt lat="48.59656" lon="1.9615">
        <ele>138.8</ele>
        <time>2026-02-17T08:24:29Z</time>
      </trkpt>
      <trkpt lat="48.59652" lon="1.96163">
        <ele>140.1</ele>
        <time>2026-02-17T08:24:36Z</time>
      </trkpt>
      <trkpt lat="48.59646" lon="1.96176">
        <ele>141.5</ele>
        <time>2026-02-17T08:24:44Z</time>
      </trkpt>
      <trkpt lat="48.59639" lon="1.96185">
        <ele>142.6</ele>
        <time>2026-02-17T08:24:52Z</time>
      </trkpt>
      <trkpt lat="48.59632" lon="1.96196">
        <ele>144</ele>
        <time>2026-02-17T08:25:01Z</time>
      </trkpt>
      <trkpt lat="48.59627" lon="1.96208">
        <ele>145.6</ele>
        <time>2026-02-17T08:25:09Z</time>
      </trkpt>
      <trkpt lat="48.59622" lon="1.9622">
        <ele>147.1</ele>
        <time>2026-02-17T08:25:17Z</time>
      </trkpt>
      <trkpt lat="48.59617" lon="1.96232">
        <ele>148.6</ele>
        <time>2026-02-17T08:25:25Z</time>
      </trkpt>
      <trkpt lat="48.59612" lon="1.96243">
        <ele>150.1</ele>
        <time>2026-02-17T08:25:34Z</time>
      </trkpt>
      <trkpt lat="48.59607" lon="1.96256">
        <ele>151.4</ele>
        <time>2026-02-17T08:25:44Z</time>
      </trkpt>
      <trkpt lat="48.59602" lon="1.96267">
        <ele>152.4</ele>
        <time>2026-02-17T08:25:55Z</time>
      </trkpt>
      <trkpt lat="48.59596" lon="1.96279">
        <ele>153.5</ele>
        <time>2026-02-17T08:26:03Z</time>
      </trkpt>
      <trkpt lat="48.5959" lon="1.96291">
        <ele>154.2</ele>
        <time>2026-02-17T08:26:11Z</time>
      </trkpt>
      <trkpt lat="48.59585" lon="1.96303">
        <ele>155</ele>
        <time>2026-02-17T08:26:19Z</time>
      </trkpt>
      <trkpt lat="48.5958" lon="1.96316">
        <ele>155.3</ele>
        <time>2026-02-17T08:26:27Z</time>
      </trkpt>
      <trkpt lat="48.59575" lon="1.96327">
        <ele>155.3</ele>
        <time>2026-02-17T08:26:34Z</time>
      </trkpt>
      <trkpt lat="48.59568" lon="1.96339">
        <ele>155.1</ele>
        <time>2026-02-17T08:26:43Z</time>
      </trkpt>
      <trkpt lat="48.59562" lon="1.96352">
        <ele>155.1</ele>
        <time>2026-02-17T08:26:51Z</time>
      </trkpt>
      <trkpt lat="48.59557" lon="1.96363">
        <ele>155.1</ele>
        <time>2026-02-17T08:26:58Z</time>
      </trkpt>
      <trkpt lat="48.59551" lon="1.96375">
        <ele>154.3</ele>
        <time>2026-02-17T08:27:05Z</time>
      </trkpt>
      <trkpt lat="48.59546" lon="1.96387">
        <ele>153.6</ele>
        <time>2026-02-17T08:27:12Z</time>
      </trkpt>
      <trkpt lat="48.59541" lon="1.964">
        <ele>152.9</ele>
        <time>2026-02-17T08:27:20Z</time>
      </trkpt>
      <trkpt lat="48.5955" lon="1.96401">
        <ele>154.2</ele>
        <time>2026-02-17T08:27:45Z</time>
      </trkpt>
      <trkpt lat="48.59541" lon="1.96402">
        <ele>152.9</ele>
        <time>2026-02-17T08:29:47Z</time>
      </trkpt>
      <trkpt lat="48.59535" lon="1.96413">
        <ele>152</ele>
        <time>2026-02-17T08:31:29Z</time>
      </trkpt>
      <trkpt lat="48.59528" lon="1.96423">
        <ele>151.3</ele>
        <time>2026-02-17T08:31:38Z</time>
      </trkpt>
      <trkpt lat="48.59522" lon="1.96435">
        <ele>150.7</ele>
        <time>2026-02-17T08:31:46Z</time>
      </trkpt>
      <trkpt lat="48.59518" lon="1.96447">
        <ele>150.2</ele>
        <time>2026-02-17T08:31:53Z</time>
      </trkpt>
      <trkpt lat="48.59514" lon="1.96461">
        <ele>149.9</ele>
        <time>2026-02-17T08:32:00Z</time>
      </trkpt>
      <trkpt lat="48.59509" lon="1.96472">
        <ele>149.3</ele>
        <time>2026-02-17T08:32:06Z</time>
      </trkpt>
      <trkpt lat="48.59503" lon="1.96484">
        <ele>148.4</ele>
        <time>2026-02-17T08:32:13Z</time>
      </trkpt>
      <trkpt lat="48.59495" lon="1.96495">
        <ele>147.2</ele>
        <time>2026-02-17T08:32:20Z</time>
      </trkpt>
      <trkpt lat="48.59489" lon="1.96507">
        <ele>145.9</ele>
        <time>2026-02-17T08:32:27Z</time>
      </trkpt>
      <trkpt lat="48.59484" lon="1.96519">
        <ele>144.9</ele>
        <time>2026-02-17T08:32:33Z</time>
      </trkpt>
      <trkpt lat="48.59482" lon="1.96533">
        <ele>144.4</ele>
        <time>2026-02-17T08:32:46Z</time>
      </trkpt>
      <trkpt lat="48.59474" lon="1.96543">
        <ele>143.2</ele>
        <time>2026-02-17T08:32:51Z</time>
      </trkpt>
      <trkpt lat="48.59469" lon="1.96554">
        <ele>142.7</ele>
        <time>2026-02-17T08:32:57Z</time>
      </trkpt>
      <trkpt lat="48.59462" lon="1.96566">
        <ele>142.7</ele>
        <time>2026-02-17T08:33:04Z</time>
      </trkpt>
      <trkpt lat="48.59457" lon="1.96578">
        <ele>142.7</ele>
        <time>2026-02-17T08:33:10Z</time>
      </trkpt>
      <trkpt lat="48.59452" lon="1.96589">
        <ele>142.7</ele>
        <time>2026-02-17T08:33:16Z</time>
      </trkpt>
      <trkpt lat="48.59446" lon="1.96602">
        <ele>142.7</ele>
        <time>2026-02-17T08:33:23Z</time>
      </trkpt>
      <trkpt lat="48.59441" lon="1.96614">
        <ele>142.8</ele>
        <time>2026-02-17T08:33:30Z</time>
      </trkpt>
      <trkpt lat="48.59448" lon="1.96625">
        <ele>143.3</ele>
        <time>2026-02-17T08:33:43Z</time>
      </trkpt>
      <trkpt lat="48.59455" lon="1.96634">
        <ele>144</ele>
        <time>2026-02-17T08:33:50Z</time>
      </trkpt>
      <trkpt lat="48.59464" lon="1.96641">
        <ele>145.1</ele>
        <time>2026-02-17T08:33:58Z</time>
      </trkpt>
      <trkpt lat="48.59472" lon="1.96646">
        <ele>146</ele>
        <time>2026-02-17T08:34:05Z</time>
      </trkpt>
      <trkpt lat="48.59482" lon="1.96651">
        <ele>146.7</ele>
        <time>2026-02-17T08:34:12Z</time>
      </trkpt>
      <trkpt lat="48.5949" lon="1.96656">
        <ele>147.3</ele>
        <time>2026-02-17T08:34:19Z</time>
      </trkpt>
      <trkpt lat="48.59499" lon="1.96663">
        <ele>147.9</ele>
        <time>2026-02-17T08:34:26Z</time>
      </trkpt>
      <trkpt lat="48.59506" lon="1.96673">
        <ele>148</ele>
        <time>2026-02-17T08:34:33Z</time>
      </trkpt>
      <trkpt lat="48.59514" lon="1.9668">
        <ele>147.8</ele>
        <time>2026-02-17T08:34:40Z</time>
      </trkpt>
      <trkpt lat="48.59522" lon="1.96688">
        <ele>147.4</ele>
        <time>2026-02-17T08:34:47Z</time>
      </trkpt>
      <trkpt lat="48.5953" lon="1.96695">
        <ele>146.9</ele>
        <time>2026-02-17T08:34:54Z</time>
      </trkpt>
      <trkpt lat="48.59538" lon="1.96703">
        <ele>146.6</ele>
        <time>2026-02-17T08:35:01Z</time>
      </trkpt>
      <trkpt lat="48.59546" lon="1.96712">
        <ele>146.3</ele>
        <time>2026-02-17T08:35:08Z</time>
      </trkpt>
      <trkpt lat="48.59554" lon="1.96719">
        <ele>146</ele>
        <time>2026-02-17T08:35:15Z</time>
      </trkpt>
      <trkpt lat="48.59562" lon="1.96726">
        <ele>145.6</ele>
        <time>2026-02-17T08:35:22Z</time>
      </trkpt>
      <trkpt lat="48.59571" lon="1.96735">
        <ele>145</ele>
        <time>2026-02-17T08:35:29Z</time>
      </trkpt>
      <trkpt lat="48.5958" lon="1.96744">
        <ele>144.4</ele>
        <time>2026-02-17T08:35:36Z</time>
      </trkpt>
      <trkpt lat="48.59586" lon="1.96754">
        <ele>144</ele>
        <time>2026-02-17T08:35:43Z</time>
      </trkpt>
      <trkpt lat="48.59594" lon="1.96763">
        <ele>143.9</ele>
        <time>2026-02-17T08:35:50Z</time>
      </trkpt>
      <trkpt lat="48.59602" lon="1.96772">
        <ele>143.9</ele>
        <time>2026-02-17T08:35:57Z</time>
      </trkpt>
      <trkpt lat="48.59611" lon="1.9678">
        <ele>143.8</ele>
        <time>2026-02-17T08:36:04Z</time>
      </trkpt>
      <trkpt lat="48.59618" lon="1.96788">
        <ele>143.5</ele>
        <time>2026-02-17T08:36:10Z</time>
      </trkpt>
      <trkpt lat="48.59626" lon="1.96798">
        <ele>143.1</ele>
        <time>2026-02-17T08:36:17Z</time>
      </trkpt>
      <trkpt lat="48.59634" lon="1.96807">
        <ele>142.7</ele>
        <time>2026-02-17T08:36:24Z</time>
      </trkpt>
      <trkpt lat="48.59642" lon="1.96815">
        <ele>142.3</ele>
        <time>2026-02-17T08:36:30Z</time>
      </trkpt>
      <trkpt lat="48.5965" lon="1.96821">
        <ele>141.9</ele>
        <time>2026-02-17T08:36:36Z</time>
      </trkpt>
      <trkpt lat="48.59658" lon="1.96829">
        <ele>141.3</ele>
        <time>2026-02-17T08:36:42Z</time>
      </trkpt>
      <trkpt lat="48.59666" lon="1.96835">
        <ele>140.9</ele>
        <time>2026-02-17T08:36:48Z</time>
      </trkpt>
      <trkpt lat="48.59674" lon="1.96844">
        <ele>140.3</ele>
        <time>2026-02-17T08:36:55Z</time>
      </trkpt>
      <trkpt lat="48.59682" lon="1.96854">
        <ele>140</ele>
        <time>2026-02-17T08:37:02Z</time>
      </trkpt>
      <trkpt lat="48.59691" lon="1.96862">
        <ele>139.9</ele>
        <time>2026-02-17T08:37:09Z</time>
      </trkpt>
      <trkpt lat="48.59699" lon="1.96869">
        <ele>140</ele>
        <time>2026-02-17T08:37:16Z</time>
      </trkpt>
      <trkpt lat="48.59707" lon="1.96876">
        <ele>140.3</ele>
        <time>2026-02-17T08:37:22Z</time>
      </trkpt>
      <trkpt lat="48.59714" lon="1.96884">
        <ele>140.6</ele>
        <time>2026-02-17T08:37:28Z</time>
      </trkpt>
      <trkpt lat="48.59722" lon="1.96894">
        <ele>140.8</ele>
        <time>2026-02-17T08:37:35Z</time>
      </trkpt>
      <trkpt lat="48.59727" lon="1.96907">
        <ele>140.8</ele>
        <time>2026-02-17T08:37:42Z</time>
      </trkpt>
      <trkpt lat="48.59725" lon="1.96922">
        <ele>140.1</ele>
        <time>2026-02-17T08:37:49Z</time>
      </trkpt>
      <trkpt lat="48.59718" lon="1.96933">
        <ele>139.1</ele>
        <time>2026-02-17T08:37:56Z</time>
      </trkpt>
      <trkpt lat="48.59712" lon="1.96945">
        <ele>138.2</ele>
        <time>2026-02-17T08:38:03Z</time>
      </trkpt>
      <trkpt lat="48.59706" lon="1.96957">
        <ele>137.6</ele>
        <time>2026-02-17T08:38:10Z</time>
      </trkpt>
      <trkpt lat="48.59702" lon="1.96971">
        <ele>137.3</ele>
        <time>2026-02-17T08:38:15Z</time>
      </trkpt>
      <trkpt lat="48.59697" lon="1.96984">
        <ele>136.7</ele>
        <time>2026-02-17T08:38:22Z</time>
      </trkpt>
      <trkpt lat="48.59692" lon="1.96997">
        <ele>136</ele>
        <time>2026-02-17T08:38:29Z</time>
      </trkpt>
      <trkpt lat="48.59686" lon="1.97008">
        <ele>135.5</ele>
        <time>2026-02-17T08:38:35Z</time>
      </trkpt>
      <trkpt lat="48.5968" lon="1.9702">
        <ele>135.1</ele>
        <time>2026-02-17T08:38:42Z</time>
      </trkpt>
      <trkpt lat="48.59674" lon="1.97032">
        <ele>134.9</ele>
        <time>2026-02-17T08:38:49Z</time>
      </trkpt>
      <trkpt lat="48.59669" lon="1.97043">
        <ele>134.5</ele>
        <time>2026-02-17T08:38:55Z</time>
      </trkpt>
      <trkpt lat="48.59663" lon="1.97054">
        <ele>134.1</ele>
        <time>2026-02-17T08:39:01Z</time>
      </trkpt>
      <trkpt lat="48.59657" lon="1.97066">
        <ele>134</ele>
        <time>2026-02-17T08:39:08Z</time>
      </trkpt>
      <trkpt lat="48.59649" lon="1.97073">
        <ele>134</ele>
        <time>2026-02-17T08:39:15Z</time>
      </trkpt>
      <trkpt lat="48.59644" lon="1.97086">
        <ele>134</ele>
        <time>2026-02-17T08:39:23Z</time>
      </trkpt>
      <trkpt lat="48.5964" lon="1.97098">
        <ele>134</ele>
        <time>2026-02-17T08:39:30Z</time>
      </trkpt>
      <trkpt lat="48.59634" lon="1.9711">
        <ele>134.2</ele>
        <time>2026-02-17T08:39:37Z</time>
      </trkpt>
      <trkpt lat="48.59628" lon="1.97122">
        <ele>134.4</ele>
        <time>2026-02-17T08:39:44Z</time>
      </trkpt>
      <trkpt lat="48.59622" lon="1.97135">
        <ele>134.6</ele>
        <time>2026-02-17T08:39:51Z</time>
      </trkpt>
      <trkpt lat="48.59616" lon="1.97147">
        <ele>134.8</ele>
        <time>2026-02-17T08:39:58Z</time>
      </trkpt>
      <trkpt lat="48.59611" lon="1.9716">
        <ele>135</ele>
        <time>2026-02-17T08:40:05Z</time>
      </trkpt>
      <trkpt lat="48.59605" lon="1.97171">
        <ele>135.4</ele>
        <time>2026-02-17T08:40:12Z</time>
      </trkpt>
      <trkpt lat="48.59599" lon="1.97183">
        <ele>135.9</ele>
        <time>2026-02-17T08:40:19Z</time>
      </trkpt>
      <trkpt lat="48.59594" lon="1.97194">
        <ele>136.3</ele>
        <time>2026-02-17T08:40:26Z</time>
      </trkpt>
      <trkpt lat="48.59587" lon="1.97206">
        <ele>137.1</ele>
        <time>2026-02-17T08:40:33Z</time>
      </trkpt>
      <trkpt lat="48.59582" lon="1.97218">
        <ele>138</ele>
        <time>2026-02-17T08:40:40Z</time>
      </trkpt>
      <trkpt lat="48.59577" lon="1.9723">
        <ele>138.8</ele>
        <time>2026-02-17T08:40:47Z</time>
      </trkpt>
      <trkpt lat="48.59571" lon="1.97242">
        <ele>139.7</ele>
        <time>2026-02-17T08:40:54Z</time>
      </trkpt>
      <trkpt lat="48.59566" lon="1.97254">
        <ele>140.5</ele>
        <time>2026-02-17T08:41:01Z</time>
      </trkpt>
      <trkpt lat="48.5956" lon="1.97266">
        <ele>140.9</ele>
        <time>2026-02-17T08:41:08Z</time>
      </trkpt>
      <trkpt lat="48.59554" lon="1.97279">
        <ele>141.2</ele>
        <time>2026-02-17T08:41:16Z</time>
      </trkpt>
      <trkpt lat="48.59548" lon="1.97291">
        <ele>141</ele>
        <time>2026-02-17T08:41:23Z</time>
      </trkpt>
      <trkpt lat="48.59542" lon="1.97303">
        <ele>140.7</ele>
        <time>2026-02-17T08:41:30Z</time>
      </trkpt>
      <trkpt lat="48.59536" lon="1.97313">
        <ele>140.5</ele>
        <time>2026-02-17T08:41:37Z</time>
      </trkpt>
      <trkpt lat="48.5953" lon="1.97325">
        <ele>140.3</ele>
        <time>2026-02-17T08:41:44Z</time>
      </trkpt>
      <trkpt lat="48.59524" lon="1.97337">
        <ele>140</ele>
        <time>2026-02-17T08:41:51Z</time>
      </trkpt>
      <trkpt lat="48.59518" lon="1.97348">
        <ele>139.5</ele>
        <time>2026-02-17T08:41:58Z</time>
      </trkpt>
      <trkpt lat="48.59512" lon="1.9736">
        <ele>138.8</ele>
        <time>2026-02-17T08:42:04Z</time>
      </trkpt>
      <trkpt lat="48.59507" lon="1.97371">
        <ele>138.9</ele>
        <time>2026-02-17T08:42:11Z</time>
      </trkpt>
      <trkpt lat="48.59502" lon="1.97384">
        <ele>139</ele>
        <time>2026-02-17T08:42:19Z</time>
      </trkpt>
      <trkpt lat="48.59496" lon="1.97397">
        <ele>138.6</ele>
        <time>2026-02-17T08:42:27Z</time>
      </trkpt>
      <trkpt lat="48.59489" lon="1.97409">
        <ele>138.2</ele>
        <time>2026-02-17T08:42:35Z</time>
      </trkpt>
      <trkpt lat="48.59482" lon="1.9742">
        <ele>138</ele>
        <time>2026-02-17T08:42:43Z</time>
      </trkpt>
      <trkpt lat="48.59478" lon="1.97432">
        <ele>138</ele>
        <time>2026-02-17T08:42:50Z</time>
      </trkpt>
      <trkpt lat="48.59474" lon="1.97445">
        <ele>138.1</ele>
        <time>2026-02-17T08:42:57Z</time>
      </trkpt>
      <trkpt lat="48.59468" lon="1.97457">
        <ele>138.8</ele>
        <time>2026-02-17T08:43:08Z</time>
      </trkpt>
      <trkpt lat="48.59469" lon="1.97473">
        <ele>139.9</ele>
        <time>2026-02-17T08:43:15Z</time>
      </trkpt>
      <trkpt lat="48.59472" lon="1.97487">
        <ele>140.5</ele>
        <time>2026-02-17T08:43:22Z</time>
      </trkpt>
      <trkpt lat="48.59476" lon="1.97502">
        <ele>140.7</ele>
        <time>2026-02-17T08:43:30Z</time>
      </trkpt>
      <trkpt lat="48.59475" lon="1.97517">
        <ele>140.8</ele>
        <time>2026-02-17T08:43:37Z</time>
      </trkpt>
      <trkpt lat="48.59471" lon="1.9753">
        <ele>141.1</ele>
        <time>2026-02-17T08:43:44Z</time>
      </trkpt>
      <trkpt lat="48.59466" lon="1.97542">
        <ele>141.9</ele>
        <time>2026-02-17T08:43:52Z</time>
      </trkpt>
      <trkpt lat="48.59458" lon="1.97552">
        <ele>142.8</ele>
        <time>2026-02-17T08:44:00Z</time>
      </trkpt>
      <trkpt lat="48.59452" lon="1.97562">
        <ele>143.7</ele>
        <time>2026-02-17T08:44:07Z</time>
      </trkpt>
      <trkpt lat="48.59446" lon="1.97573">
        <ele>144.5</ele>
        <time>2026-02-17T08:44:14Z</time>
      </trkpt>
      <trkpt lat="48.59442" lon="1.97585">
        <ele>145.3</ele>
        <time>2026-02-17T08:44:21Z</time>
      </trkpt>
      <trkpt lat="48.59437" lon="1.97598">
        <ele>146</ele>
        <time>2026-02-17T08:44:28Z</time>
      </trkpt>
      <trkpt lat="48.59432" lon="1.97612">
        <ele>146.9</ele>
        <time>2026-02-17T08:44:36Z</time>
      </trkpt>
      <trkpt lat="48.59431" lon="1.97627">
        <ele>147.8</ele>
        <time>2026-02-17T08:44:44Z</time>
      </trkpt>
      <trkpt lat="48.5943" lon="1.97641">
        <ele>148.7</ele>
        <time>2026-02-17T08:44:51Z</time>
      </trkpt>
      <trkpt lat="48.5943" lon="1.97655">
        <ele>149.8</ele>
        <time>2026-02-17T08:44:59Z</time>
      </trkpt>
      <trkpt lat="48.59429" lon="1.97669">
        <ele>150.9</ele>
        <time>2026-02-17T08:45:07Z</time>
      </trkpt>
      <trkpt lat="48.59429" lon="1.97683">
        <ele>152.1</ele>
        <time>2026-02-17T08:45:15Z</time>
      </trkpt>
      <trkpt lat="48.59431" lon="1.97697">
        <ele>153.1</ele>
        <time>2026-02-17T08:45:23Z</time>
      </trkpt>
      <trkpt lat="48.59436" lon="1.9771">
        <ele>153.8</ele>
        <time>2026-02-17T08:45:31Z</time>
      </trkpt>
      <trkpt lat="48.59439" lon="1.97724">
        <ele>154.5</ele>
        <time>2026-02-17T08:45:39Z</time>
      </trkpt>
      <trkpt lat="48.59443" lon="1.97737">
        <ele>155.1</ele>
        <time>2026-02-17T08:45:47Z</time>
      </trkpt>
      <trkpt lat="48.59439" lon="1.9775">
        <ele>156.2</ele>
        <time>2026-02-17T08:45:54Z</time>
      </trkpt>
      <trkpt lat="48.59429" lon="1.9775">
        <ele>156.5</ele>
        <time>2026-02-17T08:46:02Z</time>
      </trkpt>
      <trkpt lat="48.5942" lon="1.97744">
        <ele>156.6</ele>
        <time>2026-02-17T08:46:09Z</time>
      </trkpt>
      <trkpt lat="48.59412" lon="1.97737">
        <ele>156.7</ele>
        <time>2026-02-17T08:46:15Z</time>
      </trkpt>
      <trkpt lat="48.59403" lon="1.9773">
        <ele>156.8</ele>
        <time>2026-02-17T08:46:23Z</time>
      </trkpt>
      <trkpt lat="48.59393" lon="1.97725">
        <ele>156.9</ele>
        <time>2026-02-17T08:46:30Z</time>
      </trkpt>
      <trkpt lat="48.59385" lon="1.97718">
        <ele>156.9</ele>
        <time>2026-02-17T08:46:37Z</time>
      </trkpt>
      <trkpt lat="48.59376" lon="1.97713">
        <ele>156.7</ele>
        <time>2026-02-17T08:46:44Z</time>
      </trkpt>
      <trkpt lat="48.59367" lon="1.97708">
        <ele>156.5</ele>
        <time>2026-02-17T08:46:52Z</time>
      </trkpt>
      <trkpt lat="48.59357" lon="1.97708">
        <ele>156.3</ele>
        <time>2026-02-17T08:46:59Z</time>
      </trkpt>
      <trkpt lat="48.5935" lon="1.97719">
        <ele>156.5</ele>
        <time>2026-02-17T08:47:07Z</time>
      </trkpt>
      <trkpt lat="48.59347" lon="1.97733">
        <ele>156.5</ele>
        <time>2026-02-17T08:47:14Z</time>
      </trkpt>
      <trkpt lat="48.59343" lon="1.97747">
        <ele>156.3</ele>
        <time>2026-02-17T08:47:21Z</time>
      </trkpt>
      <trkpt lat="48.59338" lon="1.97759">
        <ele>156.2</ele>
        <time>2026-02-17T08:47:28Z</time>
      </trkpt>
      <trkpt lat="48.59335" lon="1.97772">
        <ele>156</ele>
        <time>2026-02-17T08:47:35Z</time>
      </trkpt>
      <trkpt lat="48.59336" lon="1.97787">
        <ele>156.1</ele>
        <time>2026-02-17T08:47:42Z</time>
      </trkpt>
      <trkpt lat="48.59339" lon="1.97801">
        <ele>156.2</ele>
        <time>2026-02-17T08:47:49Z</time>
      </trkpt>
      <trkpt lat="48.59344" lon="1.97813">
        <ele>156.2</ele>
        <time>2026-02-17T08:47:56Z</time>
      </trkpt>
      <trkpt lat="48.59349" lon="1.97826">
        <ele>156.2</ele>
        <time>2026-02-17T08:48:03Z</time>
      </trkpt>
      <trkpt lat="48.59352" lon="1.97839">
        <ele>156.2</ele>
        <time>2026-02-17T08:48:10Z</time>
      </trkpt>
      <trkpt lat="48.59357" lon="1.97852">
        <ele>156.5</ele>
        <time>2026-02-17T08:48:17Z</time>
      </trkpt>
      <trkpt lat="48.59361" lon="1.97866">
        <ele>157</ele>
        <time>2026-02-17T08:48:24Z</time>
      </trkpt>
      <trkpt lat="48.59365" lon="1.9788">
        <ele>157.3</ele>
        <time>2026-02-17T08:48:31Z</time>
      </trkpt>
      <trkpt lat="48.59368" lon="1.97895">
        <ele>157.4</ele>
        <time>2026-02-17T08:48:38Z</time>
      </trkpt>
      <trkpt lat="48.5937" lon="1.97909">
        <ele>157.1</ele>
        <time>2026-02-17T08:48:45Z</time>
      </trkpt>
      <trkpt lat="48.5937" lon="1.97924">
        <ele>157.1</ele>
        <time>2026-02-17T08:48:52Z</time>
      </trkpt>
      <trkpt lat="48.59369" lon="1.97938">
        <ele>157.4</ele>
        <time>2026-02-17T08:49:01Z</time>
      </trkpt>
      <trkpt lat="48.59368" lon="1.97952">
        <ele>157.7</ele>
        <time>2026-02-17T08:49:10Z</time>
      </trkpt>
      <trkpt lat="48.59365" lon="1.97965">
        <ele>157.9</ele>
        <time>2026-02-17T08:49:18Z</time>
      </trkpt>
      <trkpt lat="48.59363" lon="1.97979">
        <ele>158.1</ele>
        <time>2026-02-17T08:49:25Z</time>
      </trkpt>
      <trkpt lat="48.59359" lon="1.97991">
        <ele>157.7</ele>
        <time>2026-02-17T08:49:32Z</time>
      </trkpt>
      <trkpt lat="48.59366" lon="1.98">
        <ele>158.2</ele>
        <time>2026-02-17T08:49:46Z</time>
      </trkpt>
      <trkpt lat="48.59376" lon="1.97999">
        <ele>158.5</ele>
        <time>2026-02-17T08:49:58Z</time>
      </trkpt>
      <trkpt lat="48.59367" lon="1.97999">
        <ele>158.2</ele>
        <time>2026-02-17T08:50:43Z</time>
      </trkpt>
      <trkpt lat="48.59357" lon="1.97998">
        <ele>157.5</ele>
        <time>2026-02-17T08:50:51Z</time>
      </trkpt>
      <trkpt lat="48.5935" lon="1.98008">
        <ele>156.8</ele>
        <time>2026-02-17T08:51:00Z</time>
      </trkpt>
      <trkpt lat="48.59353" lon="1.98022">
        <ele>157.2</ele>
        <time>2026-02-17T08:52:17Z</time>
      </trkpt>
      <trkpt lat="48.5936" lon="1.98034">
        <ele>157.4</ele>
        <time>2026-02-17T08:52:24Z</time>
      </trkpt>
      <trkpt lat="48.59365" lon="1.98045">
        <ele>156.9</ele>
        <time>2026-02-17T08:52:31Z</time>
      </trkpt>
      <trkpt lat="48.59372" lon="1.98054">
        <ele>156.5</ele>
        <time>2026-02-17T08:52:38Z</time>
      </trkpt>
      <trkpt lat="48.59381" lon="1.98061">
        <ele>156.4</ele>
        <time>2026-02-17T08:52:45Z</time>
      </trkpt>
      <trkpt lat="48.5939" lon="1.98069">
        <ele>156.5</ele>
        <time>2026-02-17T08:52:52Z</time>
      </trkpt>
      <trkpt lat="48.59397" lon="1.98078">
        <ele>156.2</ele>
        <time>2026-02-17T08:52:59Z</time>
      </trkpt>
      <trkpt lat="48.59406" lon="1.98085">
        <ele>155.9</ele>
        <time>2026-02-17T08:53:06Z</time>
      </trkpt>
      <trkpt lat="48.59416" lon="1.98088">
        <ele>155.6</ele>
        <time>2026-02-17T08:53:13Z</time>
      </trkpt>
      <trkpt lat="48.59425" lon="1.98088">
        <ele>155.9</ele>
        <time>2026-02-17T08:53:20Z</time>
      </trkpt>
      <trkpt lat="48.59432" lon="1.98078">
        <ele>156.8</ele>
        <time>2026-02-17T08:53:27Z</time>
      </trkpt>
      <trkpt lat="48.59438" lon="1.98067">
        <ele>157.5</ele>
        <time>2026-02-17T08:53:34Z</time>
      </trkpt>
      <trkpt lat="48.59446" lon="1.98058">
        <ele>157.9</ele>
        <time>2026-02-17T08:53:41Z</time>
      </trkpt>
      <trkpt lat="48.59453" lon="1.98047">
        <ele>158.3</ele>
        <time>2026-02-17T08:53:49Z</time>
      </trkpt>
      <trkpt lat="48.59461" lon="1.98039">
        <ele>158.6</ele>
        <time>2026-02-17T08:53:57Z</time>
      </trkpt>
      <trkpt lat="48.59468" lon="1.98027">
        <ele>159</ele>
        <time>2026-02-17T08:54:04Z</time>
      </trkpt>
      <trkpt lat="48.59476" lon="1.98017">
        <ele>158.9</ele>
        <time>2026-02-17T08:54:10Z</time>
      </trkpt>
      <trkpt lat="48.59483" lon="1.98008">
        <ele>158.6</ele>
        <time>2026-02-17T08:54:17Z</time>
      </trkpt>
      <trkpt lat="48.59492" lon="1.97999">
        <ele>158.3</ele>
        <time>2026-02-17T08:54:24Z</time>
      </trkpt>
      <trkpt lat="48.59501" lon="1.97993">
        <ele>158.3</ele>
        <time>2026-02-17T08:54:31Z</time>
      </trkpt>
      <trkpt lat="48.59511" lon="1.97991">
        <ele>158.2</ele>
        <time>2026-02-17T08:54:38Z</time>
      </trkpt>
      <trkpt lat="48.5952" lon="1.97997">
        <ele>158</ele>
        <time>2026-02-17T08:54:45Z</time>
      </trkpt>
      <trkpt lat="48.59528" lon="1.98006">
        <ele>157.8</ele>
        <time>2026-02-17T08:54:52Z</time>
      </trkpt>
      <trkpt lat="48.59536" lon="1.98013">
        <ele>157.4</ele>
        <time>2026-02-17T08:54:59Z</time>
      </trkpt>
      <trkpt lat="48.59544" lon="1.98021">
        <ele>157.1</ele>
        <time>2026-02-17T08:55:06Z</time>
      </trkpt>
      <trkpt lat="48.59553" lon="1.98027">
        <ele>157</ele>
        <time>2026-02-17T08:55:13Z</time>
      </trkpt>
      <trkpt lat="48.59562" lon="1.98032">
        <ele>156.2</ele>
        <time>2026-02-17T08:55:19Z</time>
      </trkpt>
      <trkpt lat="48.59571" lon="1.98035">
        <ele>155.2</ele>
        <time>2026-02-17T08:55:25Z</time>
      </trkpt>
      <trkpt lat="48.5958" lon="1.98037">
        <ele>154.3</ele>
        <time>2026-02-17T08:55:31Z</time>
      </trkpt>
      <trkpt lat="48.59589" lon="1.98041">
        <ele>153.1</ele>
        <time>2026-02-17T08:55:37Z</time>
      </trkpt>
      <trkpt lat="48.59598" lon="1.98051">
        <ele>152</ele>
        <time>2026-02-17T08:55:44Z</time>
      </trkpt>
      <trkpt lat="48.59605" lon="1.98061">
        <ele>151.1</ele>
        <time>2026-02-17T08:55:50Z</time>
      </trkpt>
      <trkpt lat="48.59611" lon="1.9807">
        <ele>150.5</ele>
        <time>2026-02-17T08:55:56Z</time>
      </trkpt>
      <trkpt lat="48.59617" lon="1.98081">
        <ele>150.5</ele>
        <time>2026-02-17T08:56:02Z</time>
      </trkpt>
      <trkpt lat="48.59624" lon="1.9809">
        <ele>150.3</ele>
        <time>2026-02-17T08:56:08Z</time>
      </trkpt>
      <trkpt lat="48.59632" lon="1.98098">
        <ele>150</ele>
        <time>2026-02-17T08:56:15Z</time>
      </trkpt>
      <trkpt lat="48.59639" lon="1.98109">
        <ele>149.9</ele>
        <time>2026-02-17T08:56:22Z</time>
      </trkpt>
      <trkpt lat="48.59646" lon="1.98118">
        <ele>150</ele>
        <time>2026-02-17T08:56:29Z</time>
      </trkpt>
      <trkpt lat="48.59654" lon="1.98127">
        <ele>150</ele>
        <time>2026-02-17T08:56:37Z</time>
      </trkpt>
      <trkpt lat="48.59662" lon="1.98136">
        <ele>150</ele>
        <time>2026-02-17T08:56:44Z</time>
      </trkpt>
      <trkpt lat="48.59669" lon="1.98146">
        <ele>149.9</ele>
        <time>2026-02-17T08:56:51Z</time>
      </trkpt>
      <trkpt lat="48.59675" lon="1.98156">
        <ele>149.5</ele>
        <time>2026-02-17T08:56:59Z</time>
      </trkpt>
      <trkpt lat="48.59682" lon="1.98167">
        <ele>148.9</ele>
        <time>2026-02-17T08:57:06Z</time>
      </trkpt>
      <trkpt lat="48.59688" lon="1.98176">
        <ele>148</ele>
        <time>2026-02-17T08:57:13Z</time>
      </trkpt>
      <trkpt lat="48.59696" lon="1.98183">
        <ele>147.3</ele>
        <time>2026-02-17T08:57:20Z</time>
      </trkpt>
      <trkpt lat="48.59704" lon="1.98189">
        <ele>146.6</ele>
        <time>2026-02-17T08:57:27Z</time>
      </trkpt>
      <trkpt lat="48.59713" lon="1.98196">
        <ele>145.5</ele>
        <time>2026-02-17T08:57:35Z</time>
      </trkpt>
      <trkpt lat="48.59722" lon="1.98201">
        <ele>144.6</ele>
        <time>2026-02-17T08:57:43Z</time>
      </trkpt>
      <trkpt lat="48.59732" lon="1.98201">
        <ele>143.9</ele>
        <time>2026-02-17T08:57:53Z</time>
      </trkpt>
      <trkpt lat="48.59741" lon="1.98208">
        <ele>143</ele>
        <time>2026-02-17T08:58:02Z</time>
      </trkpt>
      <trkpt lat="48.5975" lon="1.98214">
        <ele>142.3</ele>
        <time>2026-02-17T08:58:10Z</time>
      </trkpt>
      <trkpt lat="48.59759" lon="1.98217">
        <ele>141.5</ele>
        <time>2026-02-17T08:58:17Z</time>
      </trkpt>
      <trkpt lat="48.59768" lon="1.98221">
        <ele>140.8</ele>
        <time>2026-02-17T08:58:24Z</time>
      </trkpt>
      <trkpt lat="48.59777" lon="1.98227">
        <ele>139.8</ele>
        <time>2026-02-17T08:58:31Z</time>
      </trkpt>
      <trkpt lat="48.59783" lon="1.98237">
        <ele>138.2</ele>
        <time>2026-02-17T08:58:39Z</time>
      </trkpt>
      <trkpt lat="48.5979" lon="1.98248">
        <ele>136.8</ele>
        <time>2026-02-17T08:58:48Z</time>
      </trkpt>
      <trkpt lat="48.59799" lon="1.98253">
        <ele>135.5</ele>
        <time>2026-02-17T08:58:57Z</time>
      </trkpt>
      <trkpt lat="48.59809" lon="1.98253">
        <ele>134.3</ele>
        <time>2026-02-17T08:59:07Z</time>
      </trkpt>
      <trkpt lat="48.59819" lon="1.98253">
        <ele>132.9</ele>
        <time>2026-02-17T08:59:16Z</time>
      </trkpt>
      <trkpt lat="48.59828" lon="1.98257">
        <ele>131.4</ele>
        <time>2026-02-17T08:59:24Z</time>
      </trkpt>
      <trkpt lat="48.59837" lon="1.98263">
        <ele>130.1</ele>
        <time>2026-02-17T08:59:32Z</time>
      </trkpt>
      <trkpt lat="48.59847" lon="1.98268">
        <ele>128.9</ele>
        <time>2026-02-17T08:59:40Z</time>
      </trkpt>
      <trkpt lat="48.59856" lon="1.98272">
        <ele>127.7</ele>
        <time>2026-02-17T08:59:48Z</time>
      </trkpt>
      <trkpt lat="48.59866" lon="1.98275">
        <ele>127.1</ele>
        <time>2026-02-17T08:59:56Z</time>
      </trkpt>
      <trkpt lat="48.59876" lon="1.98278">
        <ele>127</ele>
        <time>2026-02-17T09:00:04Z</time>
      </trkpt>
      <trkpt lat="48.59884" lon="1.98286">
        <ele>126.5</ele>
        <time>2026-02-17T09:00:11Z</time>
      </trkpt>
      <trkpt lat="48.59891" lon="1.98295">
        <ele>125.9</ele>
        <time>2026-02-17T09:00:18Z</time>
      </trkpt>
      <trkpt lat="48.59898" lon="1.98305">
        <ele>125.4</ele>
        <time>2026-02-17T09:00:25Z</time>
      </trkpt>
      <trkpt lat="48.59906" lon="1.98314">
        <ele>125.1</ele>
        <time>2026-02-17T09:00:33Z</time>
      </trkpt>
      <trkpt lat="48.59911" lon="1.98326">
        <ele>124.5</ele>
        <time>2026-02-17T09:00:40Z</time>
      </trkpt>
      <trkpt lat="48.59916" lon="1.98338">
        <ele>123.5</ele>
        <time>2026-02-17T09:00:47Z</time>
      </trkpt>
      <trkpt lat="48.59923" lon="1.98348">
        <ele>122.6</ele>
        <time>2026-02-17T09:00:54Z</time>
      </trkpt>
      <trkpt lat="48.59932" lon="1.98356">
        <ele>122.1</ele>
        <time>2026-02-17T09:01:01Z</time>
      </trkpt>
      <trkpt lat="48.5994" lon="1.98364">
        <ele>121.6</ele>
        <time>2026-02-17T09:01:08Z</time>
      </trkpt>
      <trkpt lat="48.59947" lon="1.98375">
        <ele>121.1</ele>
        <time>2026-02-17T09:01:15Z</time>
      </trkpt>
      <trkpt lat="48.59951" lon="1.98388">
        <ele>120.6</ele>
        <time>2026-02-17T09:01:22Z</time>
      </trkpt>
      <trkpt lat="48.59956" lon="1.984">
        <ele>119.9</ele>
        <time>2026-02-17T09:01:29Z</time>
      </trkpt>
      <trkpt lat="48.59963" lon="1.98411">
        <ele>119.2</ele>
        <time>2026-02-17T09:01:36Z</time>
      </trkpt>
      <trkpt lat="48.5997" lon="1.98421">
        <ele>118.6</ele>
        <time>2026-02-17T09:01:43Z</time>
      </trkpt>
      <trkpt lat="48.59978" lon="1.98429">
        <ele>118.6</ele>
        <time>2026-02-17T09:01:50Z</time>
      </trkpt>
      <trkpt lat="48.59986" lon="1.98437">
        <ele>118.5</ele>
        <time>2026-02-17T09:01:57Z</time>
      </trkpt>
      <trkpt lat="48.59993" lon="1.98448">
        <ele>118.2</ele>
        <time>2026-02-17T09:02:04Z</time>
      </trkpt>
      <trkpt lat="48.60001" lon="1.98458">
        <ele>117.6</ele>
        <time>2026-02-17T09:02:11Z</time>
      </trkpt>
      <trkpt lat="48.60007" lon="1.98467">
        <ele>117</ele>
        <time>2026-02-17T09:02:17Z</time>
      </trkpt>
      <trkpt lat="48.60014" lon="1.98477">
        <ele>116.7</ele>
        <time>2026-02-17T09:02:24Z</time>
      </trkpt>
      <trkpt lat="48.60023" lon="1.98475">
        <ele>117.4</ele>
        <time>2026-02-17T09:02:32Z</time>
      </trkpt>
      <trkpt lat="48.6003" lon="1.98486">
        <ele>117</ele>
        <time>2026-02-17T09:02:40Z</time>
      </trkpt>
      <trkpt lat="48.60033" lon="1.98499">
        <ele>116.1</ele>
        <time>2026-02-17T09:02:47Z</time>
      </trkpt>
      <trkpt lat="48.60037" lon="1.98514">
        <ele>115</ele>
        <time>2026-02-17T09:02:55Z</time>
      </trkpt>
      <trkpt lat="48.60041" lon="1.98527">
        <ele>114.1</ele>
        <time>2026-02-17T09:03:02Z</time>
      </trkpt>
      <trkpt lat="48.60046" lon="1.98539">
        <ele>113.5</ele>
        <time>2026-02-17T09:03:09Z</time>
      </trkpt>
      <trkpt lat="48.60055" lon="1.98547">
        <ele>113.3</ele>
        <time>2026-02-17T09:03:17Z</time>
      </trkpt>
      <trkpt lat="48.60061" lon="1.98557">
        <ele>112.7</ele>
        <time>2026-02-17T09:03:24Z</time>
      </trkpt>
      <trkpt lat="48.6007" lon="1.98565">
        <ele>112.3</ele>
        <time>2026-02-17T09:03:32Z</time>
      </trkpt>
      <trkpt lat="48.60077" lon="1.98575">
        <ele>112.1</ele>
        <time>2026-02-17T09:03:39Z</time>
      </trkpt>
      <trkpt lat="48.60085" lon="1.98585">
        <ele>111.9</ele>
        <time>2026-02-17T09:03:46Z</time>
      </trkpt>
      <trkpt lat="48.60093" lon="1.98591">
        <ele>111.4</ele>
        <time>2026-02-17T09:03:53Z</time>
      </trkpt>
      <trkpt lat="48.60103" lon="1.9859">
        <ele>111.1</ele>
        <time>2026-02-17T09:04:00Z</time>
      </trkpt>
      <trkpt lat="48.60112" lon="1.98589">
        <ele>110.7</ele>
        <time>2026-02-17T09:04:06Z</time>
      </trkpt>
      <trkpt lat="48.60121" lon="1.98595">
        <ele>110</ele>
        <time>2026-02-17T09:04:13Z</time>
      </trkpt>
      <trkpt lat="48.60126" lon="1.98607">
        <ele>109.5</ele>
        <time>2026-02-17T09:04:20Z</time>
      </trkpt>
      <trkpt lat="48.60124" lon="1.98622">
        <ele>109.5</ele>
        <time>2026-02-17T09:04:27Z</time>
      </trkpt>
      <trkpt lat="48.60131" lon="1.98633">
        <ele>109.3</ele>
        <time>2026-02-17T09:04:35Z</time>
      </trkpt>
      <trkpt lat="48.6014" lon="1.98639">
        <ele>109</ele>
        <time>2026-02-17T09:04:42Z</time>
      </trkpt>
      <trkpt lat="48.60148" lon="1.98646">
        <ele>108.7</ele>
        <time>2026-02-17T09:04:49Z</time>
      </trkpt>
      <trkpt lat="48.60151" lon="1.98661">
        <ele>108.6</ele>
        <time>2026-02-17T09:04:57Z</time>
      </trkpt>
      <trkpt lat="48.6016" lon="1.98659">
        <ele>108.2</ele>
        <time>2026-02-17T09:05:08Z</time>
      </trkpt>
      <trkpt lat="48.60166" lon="1.98647">
        <ele>108</ele>
        <time>2026-02-17T09:05:16Z</time>
      </trkpt>
      <trkpt lat="48.60174" lon="1.98638">
        <ele>107.7</ele>
        <time>2026-02-17T09:05:24Z</time>
      </trkpt>
      <trkpt lat="48.60182" lon="1.98629">
        <ele>107.4</ele>
        <time>2026-02-17T09:05:31Z</time>
      </trkpt>
      <trkpt lat="48.60191" lon="1.98621">
        <ele>107.1</ele>
        <time>2026-02-17T09:05:38Z</time>
      </trkpt>
      <trkpt lat="48.60199" lon="1.98614">
        <ele>106.7</ele>
        <time>2026-02-17T09:05:45Z</time>
      </trkpt>
      <trkpt lat="48.60207" lon="1.98604">
        <ele>106</ele>
        <time>2026-02-17T09:05:53Z</time>
      </trkpt>
      <trkpt lat="48.60215" lon="1.98595">
        <ele>105.4</ele>
        <time>2026-02-17T09:06:01Z</time>
      </trkpt>
      <trkpt lat="48.60223" lon="1.98587">
        <ele>105</ele>
        <time>2026-02-17T09:06:08Z</time>
      </trkpt>
      <trkpt lat="48.60232" lon="1.98579">
        <ele>104.7</ele>
        <time>2026-02-17T09:06:15Z</time>
      </trkpt>
      <trkpt lat="48.60239" lon="1.98571">
        <ele>104.4</ele>
        <time>2026-02-17T09:06:21Z</time>
      </trkpt>
      <trkpt lat="48.60248" lon="1.98565">
        <ele>104.1</ele>
        <time>2026-02-17T09:06:27Z</time>
      </trkpt>
      <trkpt lat="48.60256" lon="1.98555">
        <ele>104</ele>
        <time>2026-02-17T09:06:34Z</time>
      </trkpt>
      <trkpt lat="48.60265" lon="1.98547">
        <ele>104.1</ele>
        <time>2026-02-17T09:06:41Z</time>
      </trkpt>
      <trkpt lat="48.60272" lon="1.98538">
        <ele>104.1</ele>
        <time>2026-02-17T09:06:48Z</time>
      </trkpt>
      <trkpt lat="48.60279" lon="1.98527">
        <ele>104</ele>
        <time>2026-02-17T09:06:55Z</time>
      </trkpt>
      <trkpt lat="48.60285" lon="1.98514">
        <ele>104.5</ele>
        <time>2026-02-17T09:07:02Z</time>
      </trkpt>
      <trkpt lat="48.60291" lon="1.98503">
        <ele>104.9</ele>
        <time>2026-02-17T09:07:09Z</time>
      </trkpt>
      <trkpt lat="48.60297" lon="1.9849">
        <ele>105.4</ele>
        <time>2026-02-17T09:07:16Z</time>
      </trkpt>
      <trkpt lat="48.60303" lon="1.9848">
        <ele>105.7</ele>
        <time>2026-02-17T09:07:23Z</time>
      </trkpt>
      <trkpt lat="48.6031" lon="1.9847">
        <ele>105.9</ele>
        <time>2026-02-17T09:07:30Z</time>
      </trkpt>
      <trkpt lat="48.60317" lon="1.98462">
        <ele>106</ele>
        <time>2026-02-17T09:07:37Z</time>
      </trkpt>
      <trkpt lat="48.60324" lon="1.98452">
        <ele>106</ele>
        <time>2026-02-17T09:07:44Z</time>
      </trkpt>
      <trkpt lat="48.60332" lon="1.98444">
        <ele>106</ele>
        <time>2026-02-17T09:07:51Z</time>
      </trkpt>
      <trkpt lat="48.60341" lon="1.98439">
        <ele>105.5</ele>
        <time>2026-02-17T09:07:57Z</time>
      </trkpt>
      <trkpt lat="48.60349" lon="1.9843">
        <ele>104.9</ele>
        <time>2026-02-17T09:08:04Z</time>
      </trkpt>
      <trkpt lat="48.60356" lon="1.98421">
        <ele>104.4</ele>
        <time>2026-02-17T09:08:11Z</time>
      </trkpt>
      <trkpt lat="48.60363" lon="1.98413">
        <ele>103.8</ele>
        <time>2026-02-17T09:08:18Z</time>
      </trkpt>
      <trkpt lat="48.60372" lon="1.98406">
        <ele>103.2</ele>
        <time>2026-02-17T09:08:25Z</time>
      </trkpt>
      <trkpt lat="48.60382" lon="1.98402">
        <ele>102.5</ele>
        <time>2026-02-17T09:08:32Z</time>
      </trkpt>
      <trkpt lat="48.60391" lon="1.98397">
        <ele>101.9</ele>
        <time>2026-02-17T09:08:39Z</time>
      </trkpt>
      <trkpt lat="48.60401" lon="1.98393">
        <ele>101.5</ele>
        <time>2026-02-17T09:08:46Z</time>
      </trkpt>
      <trkpt lat="48.60411" lon="1.9839">
        <ele>101.2</ele>
        <time>2026-02-17T09:08:53Z</time>
      </trkpt>
      <trkpt lat="48.60419" lon="1.98383">
        <ele>100.9</ele>
        <time>2026-02-17T09:09:04Z</time>
      </trkpt>
      <trkpt lat="48.60428" lon="1.98378">
        <ele>100.6</ele>
        <time>2026-02-17T09:09:10Z</time>
      </trkpt>
      <trkpt lat="48.60438" lon="1.98377">
        <ele>100.2</ele>
        <time>2026-02-17T09:09:17Z</time>
      </trkpt>
      <trkpt lat="48.60447" lon="1.98373">
        <ele>100</ele>
        <time>2026-02-17T09:09:23Z</time>
      </trkpt>
      <trkpt lat="48.60457" lon="1.9837">
        <ele>100</ele>
        <time>2026-02-17T09:09:31Z</time>
      </trkpt>
      <trkpt lat="48.60467" lon="1.98369">
        <ele>100</ele>
        <time>2026-02-17T09:09:39Z</time>
      </trkpt>
      <trkpt lat="48.60477" lon="1.98367">
        <ele>100.1</ele>
        <time>2026-02-17T09:09:46Z</time>
      </trkpt>
      <trkpt lat="48.60486" lon="1.98366">
        <ele>100.4</ele>
        <time>2026-02-17T09:09:53Z</time>
      </trkpt>
      <trkpt lat="48.60495" lon="1.98364">
        <ele>100.7</ele>
        <time>2026-02-17T09:09:59Z</time>
      </trkpt>
      <trkpt lat="48.60504" lon="1.98363">
        <ele>101.1</ele>
        <time>2026-02-17T09:10:06Z</time>
      </trkpt>
      <trkpt lat="48.60513" lon="1.98362">
        <ele>101.4</ele>
        <time>2026-02-17T09:10:13Z</time>
      </trkpt>
      <trkpt lat="48.60522" lon="1.98361">
        <ele>101.8</ele>
        <time>2026-02-17T09:10:20Z</time>
      </trkpt>
      <trkpt lat="48.60532" lon="1.98359">
        <ele>102</ele>
        <time>2026-02-17T09:10:29Z</time>
      </trkpt>
      <trkpt lat="48.60527" lon="1.98347">
        <ele>102</ele>
        <time>2026-02-17T09:10:47Z</time>
      </trkpt>
      <trkpt lat="48.60519" lon="1.98339">
        <ele>101.7</ele>
        <time>2026-02-17T09:10:56Z</time>
      </trkpt>
      <trkpt lat="48.60511" lon="1.98332">
        <ele>101.4</ele>
        <time>2026-02-17T09:11:03Z</time>
      </trkpt>
      <trkpt lat="48.60502" lon="1.98323">
        <ele>101.4</ele>
        <time>2026-02-17T09:11:10Z</time>
      </trkpt>
      <trkpt lat="48.60493" lon="1.98315">
        <ele>101.5</ele>
        <time>2026-02-17T09:11:17Z</time>
      </trkpt>
      <trkpt lat="48.60484" lon="1.98306">
        <ele>101.4</ele>
        <time>2026-02-17T09:11:24Z</time>
      </trkpt>
      <trkpt lat="48.60477" lon="1.98297">
        <ele>101.4</ele>
        <time>2026-02-17T09:11:31Z</time>
      </trkpt>
      <trkpt lat="48.60469" lon="1.98289">
        <ele>101.5</ele>
        <time>2026-02-17T09:11:38Z</time>
      </trkpt>
      <trkpt lat="48.60465" lon="1.98276">
        <ele>101.7</ele>
        <time>2026-02-17T09:11:44Z</time>
      </trkpt>
      <trkpt lat="48.60455" lon="1.98272">
        <ele>101.5</ele>
        <time>2026-02-17T09:11:51Z</time>
      </trkpt>
      <trkpt lat="48.60446" lon="1.98264">
        <ele>101.5</ele>
        <time>2026-02-17T09:11:59Z</time>
      </trkpt>
      <trkpt lat="48.60437" lon="1.98256">
        <ele>101.8</ele>
        <time>2026-02-17T09:12:07Z</time>
      </trkpt>
      <trkpt lat="48.60429" lon="1.98247">
        <ele>102</ele>
        <time>2026-02-17T09:12:15Z</time>
      </trkpt>
      <trkpt lat="48.60421" lon="1.9824">
        <ele>102</ele>
        <time>2026-02-17T09:12:22Z</time>
      </trkpt>
      <trkpt lat="48.60412" lon="1.98232">
        <ele>102</ele>
        <time>2026-02-17T09:12:29Z</time>
      </trkpt>
      <trkpt lat="48.60405" lon="1.98224">
        <ele>102</ele>
        <time>2026-02-17T09:12:36Z</time>
      </trkpt>
      <trkpt lat="48.60397" lon="1.98216">
        <ele>102.1</ele>
        <time>2026-02-17T09:12:43Z</time>
      </trkpt>
      <trkpt lat="48.6039" lon="1.98207">
        <ele>102</ele>
        <time>2026-02-17T09:12:51Z</time>
      </trkpt>
      <trkpt lat="48.60384" lon="1.98198">
        <ele>102.4</ele>
        <time>2026-02-17T09:12:58Z</time>
      </trkpt>
      <trkpt lat="48.60375" lon="1.9819">
        <ele>103.1</ele>
        <time>2026-02-17T09:13:05Z</time>
      </trkpt>
      <trkpt lat="48.60367" lon="1.98182">
        <ele>103.7</ele>
        <time>2026-02-17T09:13:13Z</time>
      </trkpt>
      <trkpt lat="48.60359" lon="1.98172">
        <ele>104.3</ele>
        <time>2026-02-17T09:13:21Z</time>
      </trkpt>
      <trkpt lat="48.60351" lon="1.98164">
        <ele>105.5</ele>
        <time>2026-02-17T09:13:29Z</time>
      </trkpt>
      <trkpt lat="48.60343" lon="1.98154">
        <ele>106.4</ele>
        <time>2026-02-17T09:13:37Z</time>
      </trkpt>
      <trkpt lat="48.60343" lon="1.98139">
        <ele>106.3</ele>
        <time>2026-02-17T09:13:45Z</time>
      </trkpt>
      <trkpt lat="48.60349" lon="1.98126">
        <ele>105.9</ele>
        <time>2026-02-17T09:13:52Z</time>
      </trkpt>
      <trkpt lat="48.60355" lon="1.98115">
        <ele>105.9</ele>
        <time>2026-02-17T09:13:59Z</time>
      </trkpt>
      <trkpt lat="48.6036" lon="1.98102">
        <ele>106.3</ele>
        <time>2026-02-17T09:14:06Z</time>
      </trkpt>
      <trkpt lat="48.60366" lon="1.98092">
        <ele>106.7</ele>
        <time>2026-02-17T09:14:14Z</time>
      </trkpt>
      <trkpt lat="48.60375" lon="1.98087">
        <ele>106.9</ele>
        <time>2026-02-17T09:14:24Z</time>
      </trkpt>
      <trkpt lat="48.60379" lon="1.98073">
        <ele>107.4</ele>
        <time>2026-02-17T09:14:31Z</time>
      </trkpt>
      <trkpt lat="48.60384" lon="1.9806">
        <ele>107.8</ele>
        <time>2026-02-17T09:14:38Z</time>
      </trkpt>
      <trkpt lat="48.60389" lon="1.98047">
        <ele>108.3</ele>
        <time>2026-02-17T09:14:45Z</time>
      </trkpt>
      <trkpt lat="48.60394" lon="1.98034">
        <ele>108.6</ele>
        <time>2026-02-17T09:14:52Z</time>
      </trkpt>
      <trkpt lat="48.60399" lon="1.98023">
        <ele>108.7</ele>
        <time>2026-02-17T09:14:59Z</time>
      </trkpt>
      <trkpt lat="48.60404" lon="1.98011">
        <ele>108.8</ele>
        <time>2026-02-17T09:15:06Z</time>
      </trkpt>
      <trkpt lat="48.6041" lon="1.97998">
        <ele>109.1</ele>
        <time>2026-02-17T09:15:13Z</time>
      </trkpt>
      <trkpt lat="48.60416" lon="1.97987">
        <ele>109.5</ele>
        <time>2026-02-17T09:15:20Z</time>
      </trkpt>
      <trkpt lat="48.60421" lon="1.97976">
        <ele>109.7</ele>
        <time>2026-02-17T09:15:27Z</time>
      </trkpt>
      <trkpt lat="48.60426" lon="1.97963">
        <ele>109.8</ele>
        <time>2026-02-17T09:15:34Z</time>
      </trkpt>
      <trkpt lat="48.60433" lon="1.97951">
        <ele>109.9</ele>
        <time>2026-02-17T09:15:41Z</time>
      </trkpt>
      <trkpt lat="48.60438" lon="1.9794">
        <ele>110</ele>
        <time>2026-02-17T09:15:48Z</time>
      </trkpt>
      <trkpt lat="48.60444" lon="1.97929">
        <ele>110</ele>
        <time>2026-02-17T09:15:55Z</time>
      </trkpt>
      <trkpt lat="48.60449" lon="1.97916">
        <ele>109.8</ele>
        <time>2026-02-17T09:16:02Z</time>
      </trkpt>
      <trkpt lat="48.60455" lon="1.97904">
        <ele>110.1</ele>
        <time>2026-02-17T09:16:09Z</time>
      </trkpt>
      <trkpt lat="48.6046" lon="1.97892">
        <ele>110.3</ele>
        <time>2026-02-17T09:16:16Z</time>
      </trkpt>
      <trkpt lat="48.60466" lon="1.9788">
        <ele>110.5</ele>
        <time>2026-02-17T09:16:23Z</time>
      </trkpt>
      <trkpt lat="48.60471" lon="1.97869">
        <ele>110.8</ele>
        <time>2026-02-17T09:16:30Z</time>
      </trkpt>
      <trkpt lat="48.60477" lon="1.97856">
        <ele>110.8</ele>
        <time>2026-02-17T09:16:38Z</time>
      </trkpt>
      <trkpt lat="48.60482" lon="1.97845">
        <ele>110.6</ele>
        <time>2026-02-17T09:16:44Z</time>
      </trkpt>
      <trkpt lat="48.60488" lon="1.97833">
        <ele>110.4</ele>
        <time>2026-02-17T09:16:50Z</time>
      </trkpt>
      <trkpt lat="48.60494" lon="1.97821">
        <ele>110.6</ele>
        <time>2026-02-17T09:16:57Z</time>
      </trkpt>
      <trkpt lat="48.60499" lon="1.9781">
        <ele>110.9</ele>
        <time>2026-02-17T09:17:04Z</time>
      </trkpt>
      <trkpt lat="48.60503" lon="1.97797">
        <ele>111.2</ele>
        <time>2026-02-17T09:17:10Z</time>
      </trkpt>
      <trkpt lat="48.60508" lon="1.97785">
        <ele>111.4</ele>
        <time>2026-02-17T09:17:17Z</time>
      </trkpt>
      <trkpt lat="48.60514" lon="1.97774">
        <ele>111.5</ele>
        <time>2026-02-17T09:17:24Z</time>
      </trkpt>
      <trkpt lat="48.6052" lon="1.97763">
        <ele>111.3</ele>
        <time>2026-02-17T09:17:31Z</time>
      </trkpt>
      <trkpt lat="48.60525" lon="1.97752">
        <ele>111.1</ele>
        <time>2026-02-17T09:17:38Z</time>
      </trkpt>
      <trkpt lat="48.6053" lon="1.9774">
        <ele>110.8</ele>
        <time>2026-02-17T09:17:45Z</time>
      </trkpt>
      <trkpt lat="48.60534" lon="1.97727">
        <ele>110.5</ele>
        <time>2026-02-17T09:17:53Z</time>
      </trkpt>
      <trkpt lat="48.60533" lon="1.97712">
        <ele>110.6</ele>
        <time>2026-02-17T09:18:03Z</time>
      </trkpt>
      <trkpt lat="48.60524" lon="1.97707">
        <ele>111.1</ele>
        <time>2026-02-17T09:20:32Z</time>
      </trkpt>
      <trkpt lat="48.60516" lon="1.97699">
        <ele>111.4</ele>
        <time>2026-02-17T09:20:40Z</time>
      </trkpt>
      <trkpt lat="48.60508" lon="1.97691">
        <ele>111.7</ele>
        <time>2026-02-17T09:20:47Z</time>
      </trkpt>
      <trkpt lat="48.60499" lon="1.97683">
        <ele>112</ele>
        <time>2026-02-17T09:20:54Z</time>
      </trkpt>
      <trkpt lat="48.60491" lon="1.97675">
        <ele>112.3</ele>
        <time>2026-02-17T09:21:00Z</time>
      </trkpt>
      <trkpt lat="48.60483" lon="1.97668">
        <ele>112.6</ele>
        <time>2026-02-17T09:21:07Z</time>
      </trkpt>
      <trkpt lat="48.60475" lon="1.97659">
        <ele>112.9</ele>
        <time>2026-02-17T09:21:14Z</time>
      </trkpt>
      <trkpt lat="48.60467" lon="1.9765">
        <ele>113.4</ele>
        <time>2026-02-17T09:21:21Z</time>
      </trkpt>
      <trkpt lat="48.60459" lon="1.97643">
        <ele>113.9</ele>
        <time>2026-02-17T09:21:28Z</time>
      </trkpt>
      <trkpt lat="48.60451" lon="1.97635">
        <ele>114.5</ele>
        <time>2026-02-17T09:21:35Z</time>
      </trkpt>
      <trkpt lat="48.60443" lon="1.97626">
        <ele>115.1</ele>
        <time>2026-02-17T09:21:42Z</time>
      </trkpt>
      <trkpt lat="48.60434" lon="1.97617">
        <ele>115.5</ele>
        <time>2026-02-17T09:21:49Z</time>
      </trkpt>
      <trkpt lat="48.60426" lon="1.97608">
        <ele>115.6</ele>
        <time>2026-02-17T09:21:56Z</time>
      </trkpt>
      <trkpt lat="48.60418" lon="1.97601">
        <ele>115.9</ele>
        <time>2026-02-17T09:22:03Z</time>
      </trkpt>
      <trkpt lat="48.60409" lon="1.97593">
        <ele>116.7</ele>
        <time>2026-02-17T09:22:10Z</time>
      </trkpt>
      <trkpt lat="48.60401" lon="1.97586">
        <ele>117.2</ele>
        <time>2026-02-17T09:22:16Z</time>
      </trkpt>
      <trkpt lat="48.60394" lon="1.97577">
        <ele>117.6</ele>
        <time>2026-02-17T09:22:23Z</time>
      </trkpt>
      <trkpt lat="48.60385" lon="1.97568">
        <ele>118.4</ele>
        <time>2026-02-17T09:22:30Z</time>
      </trkpt>
      <trkpt lat="48.60377" lon="1.97559">
        <ele>119.3</ele>
        <time>2026-02-17T09:22:37Z</time>
      </trkpt>
      <trkpt lat="48.60369" lon="1.9755">
        <ele>119.9</ele>
        <time>2026-02-17T09:22:45Z</time>
      </trkpt>
      <trkpt lat="48.60361" lon="1.97541">
        <ele>120.5</ele>
        <time>2026-02-17T09:22:54Z</time>
      </trkpt>
      <trkpt lat="48.60353" lon="1.97533">
        <ele>120.9</ele>
        <time>2026-02-17T09:23:03Z</time>
      </trkpt>
      <trkpt lat="48.60345" lon="1.97526">
        <ele>121.1</ele>
        <time>2026-02-17T09:23:12Z</time>
      </trkpt>
      <trkpt lat="48.60341" lon="1.97514">
        <ele>121</ele>
        <time>2026-02-17T09:23:20Z</time>
      </trkpt>
      <trkpt lat="48.6034" lon="1.975">
        <ele>120.5</ele>
        <time>2026-02-17T09:23:27Z</time>
      </trkpt>
      <trkpt lat="48.60341" lon="1.97485">
        <ele>119.9</ele>
        <time>2026-02-17T09:23:34Z</time>
      </trkpt>
      <trkpt lat="48.60341" lon="1.97471">
        <ele>119.4</ele>
        <time>2026-02-17T09:23:41Z</time>
      </trkpt>
      <trkpt lat="48.60342" lon="1.97456">
        <ele>119.4</ele>
        <time>2026-02-17T09:23:48Z</time>
      </trkpt>
      <trkpt lat="48.60343" lon="1.97442">
        <ele>119.2</ele>
        <time>2026-02-17T09:23:55Z</time>
      </trkpt>
      <trkpt lat="48.60344" lon="1.97427">
        <ele>118.6</ele>
        <time>2026-02-17T09:24:02Z</time>
      </trkpt>
      <trkpt lat="48.60346" lon="1.97412">
        <ele>118.1</ele>
        <time>2026-02-17T09:24:09Z</time>
      </trkpt>
      <trkpt lat="48.60349" lon="1.97399">
        <ele>117.9</ele>
        <time>2026-02-17T09:24:15Z</time>
      </trkpt>
      <trkpt lat="48.60348" lon="1.97383">
        <ele>118</ele>
        <time>2026-02-17T09:24:22Z</time>
      </trkpt>
      <trkpt lat="48.60348" lon="1.97368">
        <ele>117.9</ele>
        <time>2026-02-17T09:24:29Z</time>
      </trkpt>
      <trkpt lat="48.60347" lon="1.97353">
        <ele>118</ele>
        <time>2026-02-17T09:24:36Z</time>
      </trkpt>
      <trkpt lat="48.60346" lon="1.97338">
        <ele>118.1</ele>
        <time>2026-02-17T09:24:43Z</time>
      </trkpt>
      <trkpt lat="48.60342" lon="1.97324">
        <ele>118.4</ele>
        <time>2026-02-17T09:24:50Z</time>
      </trkpt>
      <trkpt lat="48.60337" lon="1.97312">
        <ele>118.7</ele>
        <time>2026-02-17T09:24:57Z</time>
      </trkpt>
      <trkpt lat="48.60333" lon="1.97298">
        <ele>119</ele>
        <time>2026-02-17T09:25:04Z</time>
      </trkpt>
      <trkpt lat="48.60333" lon="1.97284">
        <ele>119</ele>
        <time>2026-02-17T09:25:10Z</time>
      </trkpt>
      <trkpt lat="48.60332" lon="1.97269">
        <ele>119.1</ele>
        <time>2026-02-17T09:25:19Z</time>
      </trkpt>
      <trkpt lat="48.60328" lon="1.97254">
        <ele>119.4</ele>
        <time>2026-02-17T09:25:26Z</time>
      </trkpt>
      <trkpt lat="48.60325" lon="1.9724">
        <ele>119.6</ele>
        <time>2026-02-17T09:25:33Z</time>
      </trkpt>
      <trkpt lat="48.6032" lon="1.97228">
        <ele>120</ele>
        <time>2026-02-17T09:25:40Z</time>
      </trkpt>
      <trkpt lat="48.60315" lon="1.97215">
        <ele>120.3</ele>
        <time>2026-02-17T09:25:49Z</time>
      </trkpt>
      <trkpt lat="48.6031" lon="1.97203">
        <ele>120.7</ele>
        <time>2026-02-17T09:26:09Z</time>
      </trkpt>
      <trkpt lat="48.60302" lon="1.97197">
        <ele>121.3</ele>
        <time>2026-02-17T09:26:17Z</time>
      </trkpt>
      <trkpt lat="48.60295" lon="1.97186">
        <ele>121.7</ele>
        <time>2026-02-17T09:26:24Z</time>
      </trkpt>
      <trkpt lat="48.60288" lon="1.97178">
        <ele>122.3</ele>
        <time>2026-02-17T09:26:32Z</time>
      </trkpt>
      <trkpt lat="48.60283" lon="1.97165">
        <ele>122.6</ele>
        <time>2026-02-17T09:26:42Z</time>
      </trkpt>
      <trkpt lat="48.60281" lon="1.97151">
        <ele>122.8</ele>
        <time>2026-02-17T09:26:50Z</time>
      </trkpt>
      <trkpt lat="48.60279" lon="1.97138">
        <ele>122.9</ele>
        <time>2026-02-17T09:26:57Z</time>
      </trkpt>
      <trkpt lat="48.60274" lon="1.97125">
        <ele>123.3</ele>
        <time>2026-02-17T09:27:04Z</time>
      </trkpt>
      <trkpt lat="48.60269" lon="1.97113">
        <ele>123.6</ele>
        <time>2026-02-17T09:27:12Z</time>
      </trkpt>
      <trkpt lat="48.60259" lon="1.9711">
        <ele>124.3</ele>
        <time>2026-02-17T09:27:20Z</time>
      </trkpt>
      <trkpt lat="48.60256" lon="1.97097">
        <ele>124</ele>
        <time>2026-02-17T09:27:28Z</time>
      </trkpt>
      <trkpt lat="48.60262" lon="1.97084">
        <ele>123.2</ele>
        <time>2026-02-17T09:27:35Z</time>
      </trkpt>
      <trkpt lat="48.60268" lon="1.97073">
        <ele>122.7</ele>
        <time>2026-02-17T09:27:42Z</time>
      </trkpt>
      <trkpt lat="48.60275" lon="1.97062">
        <ele>122.2</ele>
        <time>2026-02-17T09:27:49Z</time>
      </trkpt>
      <trkpt lat="48.6028" lon="1.97051">
        <ele>121.7</ele>
        <time>2026-02-17T09:27:56Z</time>
      </trkpt>
      <trkpt lat="48.60286" lon="1.9704">
        <ele>121</ele>
        <time>2026-02-17T09:28:03Z</time>
      </trkpt>
      <trkpt lat="48.60296" lon="1.97039">
        <ele>120.5</ele>
        <time>2026-02-17T09:28:12Z</time>
      </trkpt>
      <trkpt lat="48.60305" lon="1.97045">
        <ele>120</ele>
        <time>2026-02-17T09:28:17Z</time>
      </trkpt>
      <trkpt lat="48.60304" lon="1.9706">
        <ele>120.1</ele>
        <time>2026-02-17T09:28:25Z</time>
      </trkpt>
      <trkpt lat="48.60311" lon="1.97072">
        <ele>120.1</ele>
        <time>2026-02-17T09:28:32Z</time>
      </trkpt>
      <trkpt lat="48.60316" lon="1.97086">
        <ele>120</ele>
        <time>2026-02-17T09:28:40Z</time>
      </trkpt>
      <trkpt lat="48.60323" lon="1.97096">
        <ele>119.7</ele>
        <time>2026-02-17T09:28:46Z</time>
      </trkpt>
      <trkpt lat="48.60331" lon="1.97104">
        <ele>119.3</ele>
        <time>2026-02-17T09:28:53Z</time>
      </trkpt>
      <trkpt lat="48.60339" lon="1.97112">
        <ele>119.4</ele>
        <time>2026-02-17T09:29:01Z</time>
      </trkpt>
      <trkpt lat="48.60349" lon="1.9711">
        <ele>120.2</ele>
        <time>2026-02-17T09:29:09Z</time>
      </trkpt>
      <trkpt lat="48.60358" lon="1.97114">
        <ele>120.6</ele>
        <time>2026-02-17T09:29:19Z</time>
      </trkpt>
      <trkpt lat="48.6036" lon="1.97128">
        <ele>119.7</ele>
        <time>2026-02-17T09:29:30Z</time>
      </trkpt>
      <trkpt lat="48.60367" lon="1.97137">
        <ele>120</ele>
        <time>2026-02-17T09:29:43Z</time>
      </trkpt>
      <trkpt lat="48.60371" lon="1.97151">
        <ele>119.7</ele>
        <time>2026-02-17T09:29:52Z</time>
      </trkpt>
      <trkpt lat="48.60365" lon="1.97164">
        <ele>118.4</ele>
        <time>2026-02-17T09:30:07Z</time>
      </trkpt>
      <trkpt lat="48.60374" lon="1.97169">
        <ele>118.8</ele>
        <time>2026-02-17T09:30:15Z</time>
      </trkpt>
      <trkpt lat="48.60381" lon="1.97177">
        <ele>118.9</ele>
        <time>2026-02-17T09:30:21Z</time>
      </trkpt>
      <trkpt lat="48.60389" lon="1.97188">
        <ele>118.4</ele>
        <time>2026-02-17T09:30:28Z</time>
      </trkpt>
      <trkpt lat="48.60396" lon="1.97199">
        <ele>118.1</ele>
        <time>2026-02-17T09:30:35Z</time>
      </trkpt>
      <trkpt lat="48.60403" lon="1.97209">
        <ele>117.7</ele>
        <time>2026-02-17T09:30:41Z</time>
      </trkpt>
      <trkpt lat="48.6041" lon="1.97219">
        <ele>117.2</ele>
        <time>2026-02-17T09:30:47Z</time>
      </trkpt>
      <trkpt lat="48.60419" lon="1.97228">
        <ele>116.8</ele>
        <time>2026-02-17T09:30:54Z</time>
      </trkpt>
      <trkpt lat="48.60428" lon="1.97236">
        <ele>116.5</ele>
        <time>2026-02-17T09:31:00Z</time>
      </trkpt>
      <trkpt lat="48.60435" lon="1.97245">
        <ele>116.2</ele>
        <time>2026-02-17T09:31:06Z</time>
      </trkpt>
      <trkpt lat="48.60443" lon="1.97253">
        <ele>115.9</ele>
        <time>2026-02-17T09:31:12Z</time>
      </trkpt>
      <trkpt lat="48.60451" lon="1.97259">
        <ele>115.4</ele>
        <time>2026-02-17T09:31:18Z</time>
      </trkpt>
      <trkpt lat="48.6046" lon="1.97265">
        <ele>114.9</ele>
        <time>2026-02-17T09:31:25Z</time>
      </trkpt>
      <trkpt lat="48.60469" lon="1.9727">
        <ele>114.4</ele>
        <time>2026-02-17T09:31:31Z</time>
      </trkpt>
      <trkpt lat="48.60478" lon="1.97275">
        <ele>114.1</ele>
        <time>2026-02-17T09:31:37Z</time>
      </trkpt>
      <trkpt lat="48.60489" lon="1.97277">
        <ele>114</ele>
        <time>2026-02-17T09:31:43Z</time>
      </trkpt>
      <trkpt lat="48.60498" lon="1.97279">
        <ele>114</ele>
        <time>2026-02-17T09:31:49Z</time>
      </trkpt>
      <trkpt lat="48.60507" lon="1.97282">
        <ele>113.6</ele>
        <time>2026-02-17T09:31:55Z</time>
      </trkpt>
      <trkpt lat="48.60516" lon="1.97288">
        <ele>113.3</ele>
        <time>2026-02-17T09:32:01Z</time>
      </trkpt>
      <trkpt lat="48.60524" lon="1.97294">
        <ele>113.1</ele>
        <time>2026-02-17T09:32:07Z</time>
      </trkpt>
      <trkpt lat="48.60532" lon="1.97301">
        <ele>112.9</ele>
        <time>2026-02-17T09:32:13Z</time>
      </trkpt>
      <trkpt lat="48.60541" lon="1.97304">
        <ele>112.5</ele>
        <time>2026-02-17T09:32:19Z</time>
      </trkpt>
      <trkpt lat="48.60551" lon="1.97307">
        <ele>112.2</ele>
        <time>2026-02-17T09:32:25Z</time>
      </trkpt>
      <trkpt lat="48.6056" lon="1.97311">
        <ele>112</ele>
        <time>2026-02-17T09:32:31Z</time>
      </trkpt>
      <trkpt lat="48.60568" lon="1.9732">
        <ele>112</ele>
        <time>2026-02-17T09:32:37Z</time>
      </trkpt>
      <trkpt lat="48.60574" lon="1.9733">
        <ele>112</ele>
        <time>2026-02-17T09:32:43Z</time>
      </trkpt>
      <trkpt lat="48.60581" lon="1.97341">
        <ele>111.7</ele>
        <time>2026-02-17T09:32:50Z</time>
      </trkpt>
      <trkpt lat="48.60588" lon="1.97351">
        <ele>111.3</ele>
        <time>2026-02-17T09:32:57Z</time>
      </trkpt>
      <trkpt lat="48.60596" lon="1.9736">
        <ele>111</ele>
        <time>2026-02-17T09:33:04Z</time>
      </trkpt>
      <trkpt lat="48.60605" lon="1.97366">
        <ele>110.9</ele>
        <time>2026-02-17T09:33:11Z</time>
      </trkpt>
      <trkpt lat="48.60612" lon="1.97376">
        <ele>110.4</ele>
        <time>2026-02-17T09:33:18Z</time>
      </trkpt>
      <trkpt lat="48.60616" lon="1.97389">
        <ele>109.8</ele>
        <time>2026-02-17T09:33:24Z</time>
      </trkpt>
      <trkpt lat="48.60621" lon="1.97401">
        <ele>109.6</ele>
        <time>2026-02-17T09:33:31Z</time>
      </trkpt>
      <trkpt lat="48.60628" lon="1.97411">
        <ele>109.4</ele>
        <time>2026-02-17T09:33:38Z</time>
      </trkpt>
      <trkpt lat="48.60636" lon="1.9742">
        <ele>109.1</ele>
        <time>2026-02-17T09:33:45Z</time>
      </trkpt>
      <trkpt lat="48.60644" lon="1.9743">
        <ele>108.7</ele>
        <time>2026-02-17T09:33:52Z</time>
      </trkpt>
      <trkpt lat="48.60651" lon="1.97438">
        <ele>108.1</ele>
        <time>2026-02-17T09:33:58Z</time>
      </trkpt>
      <trkpt lat="48.60658" lon="1.97447">
        <ele>107.6</ele>
        <time>2026-02-17T09:34:04Z</time>
      </trkpt>
      <trkpt lat="48.60665" lon="1.97457">
        <ele>107.1</ele>
        <time>2026-02-17T09:34:10Z</time>
      </trkpt>
      <trkpt lat="48.60673" lon="1.97464">
        <ele>106.8</ele>
        <time>2026-02-17T09:34:17Z</time>
      </trkpt>
      <trkpt lat="48.60682" lon="1.97471">
        <ele>106.4</ele>
        <time>2026-02-17T09:34:24Z</time>
      </trkpt>
      <trkpt lat="48.60692" lon="1.97475">
        <ele>106.1</ele>
        <time>2026-02-17T09:34:31Z</time>
      </trkpt>
      <trkpt lat="48.60702" lon="1.97478">
        <ele>106</ele>
        <time>2026-02-17T09:34:38Z</time>
      </trkpt>
      <trkpt lat="48.60711" lon="1.97478">
        <ele>106</ele>
        <time>2026-02-17T09:34:44Z</time>
      </trkpt>
      <trkpt lat="48.6072" lon="1.97473">
        <ele>106</ele>
        <time>2026-02-17T09:34:50Z</time>
      </trkpt>
      <trkpt lat="48.60729" lon="1.97467">
        <ele>105.8</ele>
        <time>2026-02-17T09:34:57Z</time>
      </trkpt>
      <trkpt lat="48.60738" lon="1.97462">
        <ele>105.4</ele>
        <time>2026-02-17T09:35:06Z</time>
      </trkpt>
      <trkpt lat="48.60746" lon="1.97457">
        <ele>105.1</ele>
        <time>2026-02-17T09:35:13Z</time>
      </trkpt>
      <trkpt lat="48.60755" lon="1.9745">
        <ele>105</ele>
        <time>2026-02-17T09:35:21Z</time>
      </trkpt>
      <trkpt lat="48.60762" lon="1.97442">
        <ele>105</ele>
        <time>2026-02-17T09:35:29Z</time>
      </trkpt>
      <trkpt lat="48.60755" lon="1.97433">
        <ele>105</ele>
        <time>2026-02-17T09:35:56Z</time>
      </trkpt>
      <trkpt lat="48.60748" lon="1.97425">
        <ele>105.1</ele>
        <time>2026-02-17T09:36:05Z</time>
      </trkpt>
      <trkpt lat="48.60739" lon="1.97417">
        <ele>105.4</ele>
        <time>2026-02-17T09:36:12Z</time>
      </trkpt>
      <trkpt lat="48.6073" lon="1.97412">
        <ele>105.7</ele>
        <time>2026-02-17T09:36:17Z</time>
      </trkpt>
      <trkpt lat="48.60724" lon="1.97401">
        <ele>105.9</ele>
        <time>2026-02-17T09:36:24Z</time>
      </trkpt>
      <trkpt lat="48.60719" lon="1.97388">
        <ele>106.1</ele>
        <time>2026-02-17T09:36:33Z</time>
      </trkpt>
      <trkpt lat="48.60716" lon="1.97373">
        <ele>106.2</ele>
        <time>2026-02-17T09:36:40Z</time>
      </trkpt>
      <trkpt lat="48.60714" lon="1.97359">
        <ele>106.4</ele>
        <time>2026-02-17T09:36:46Z</time>
      </trkpt>
      <trkpt lat="48.60712" lon="1.97343">
        <ele>107</ele>
        <time>2026-02-17T09:36:53Z</time>
      </trkpt>
      <trkpt lat="48.6071" lon="1.97328">
        <ele>107.5</ele>
        <time>2026-02-17T09:37:00Z</time>
      </trkpt>
      <trkpt lat="48.60706" lon="1.97314">
        <ele>107.6</ele>
        <time>2026-02-17T09:37:07Z</time>
      </trkpt>
      <trkpt lat="48.60702" lon="1.97301">
        <ele>107.7</ele>
        <time>2026-02-17T09:37:14Z</time>
      </trkpt>
      <trkpt lat="48.60697" lon="1.97287">
        <ele>107.9</ele>
        <time>2026-02-17T09:37:21Z</time>
      </trkpt>
      <trkpt lat="48.60694" lon="1.97273">
        <ele>108.2</ele>
        <time>2026-02-17T09:37:28Z</time>
      </trkpt>
      <trkpt lat="48.60692" lon="1.97258">
        <ele>108.7</ele>
        <time>2026-02-17T09:37:35Z</time>
      </trkpt>
      <trkpt lat="48.6069" lon="1.97244">
        <ele>109</ele>
        <time>2026-02-17T09:37:41Z</time>
      </trkpt>
      <trkpt lat="48.60693" lon="1.9723">
        <ele>109</ele>
        <time>2026-02-17T09:37:47Z</time>
      </trkpt>
      <trkpt lat="48.60697" lon="1.97216">
        <ele>108.9</ele>
        <time>2026-02-17T09:37:54Z</time>
      </trkpt>
      <trkpt lat="48.60702" lon="1.97204">
        <ele>108.7</ele>
        <time>2026-02-17T09:38:00Z</time>
      </trkpt>
      <trkpt lat="48.60705" lon="1.97191">
        <ele>108.6</ele>
        <time>2026-02-17T09:38:06Z</time>
      </trkpt>
      <trkpt lat="48.60707" lon="1.97177">
        <ele>108.6</ele>
        <time>2026-02-17T09:38:13Z</time>
      </trkpt>
      <trkpt lat="48.60705" lon="1.97162">
        <ele>108.8</ele>
        <time>2026-02-17T09:38:20Z</time>
      </trkpt>
      <trkpt lat="48.60703" lon="1.97148">
        <ele>109.4</ele>
        <time>2026-02-17T09:38:27Z</time>
      </trkpt>
      <trkpt lat="48.60702" lon="1.97134">
        <ele>109.7</ele>
        <time>2026-02-17T09:38:34Z</time>
      </trkpt>
      <trkpt lat="48.60702" lon="1.9712">
        <ele>109.7</ele>
        <time>2026-02-17T09:38:41Z</time>
      </trkpt>
      <trkpt lat="48.60699" lon="1.97106">
        <ele>110</ele>
        <time>2026-02-17T09:38:48Z</time>
      </trkpt>
      <trkpt lat="48.60692" lon="1.97097">
        <ele>110.7</ele>
        <time>2026-02-17T09:38:55Z</time>
      </trkpt>
      <trkpt lat="48.60683" lon="1.97089">
        <ele>111.6</ele>
        <time>2026-02-17T09:39:02Z</time>
      </trkpt>
      <trkpt lat="48.60675" lon="1.97081">
        <ele>112.4</ele>
        <time>2026-02-17T09:39:09Z</time>
      </trkpt>
      <trkpt lat="48.60669" lon="1.9707">
        <ele>112.9</ele>
        <time>2026-02-17T09:39:16Z</time>
      </trkpt>
      <trkpt lat="48.60663" lon="1.97059">
        <ele>113.3</ele>
        <time>2026-02-17T09:39:23Z</time>
      </trkpt>
      <trkpt lat="48.60655" lon="1.97051">
        <ele>113.9</ele>
        <time>2026-02-17T09:39:32Z</time>
      </trkpt>
      <trkpt lat="48.60655" lon="1.97036">
        <ele>114.3</ele>
        <time>2026-02-17T09:39:39Z</time>
      </trkpt>
      <trkpt lat="48.60656" lon="1.97021">
        <ele>114.5</ele>
        <time>2026-02-17T09:39:46Z</time>
      </trkpt>
      <trkpt lat="48.60655" lon="1.97007">
        <ele>114.7</ele>
        <time>2026-02-17T09:39:53Z</time>
      </trkpt>
      <trkpt lat="48.60657" lon="1.96992">
        <ele>114.9</ele>
        <time>2026-02-17T09:40:00Z</time>
      </trkpt>
      <trkpt lat="48.60661" lon="1.96977">
        <ele>115.1</ele>
        <time>2026-02-17T09:40:07Z</time>
      </trkpt>
      <trkpt lat="48.60665" lon="1.96963">
        <ele>115.1</ele>
        <time>2026-02-17T09:40:14Z</time>
      </trkpt>
      <trkpt lat="48.60671" lon="1.96952">
        <ele>114.7</ele>
        <time>2026-02-17T09:40:43Z</time>
      </trkpt>
      <trkpt lat="48.60677" lon="1.96939">
        <ele>114.3</ele>
        <time>2026-02-17T09:40:50Z</time>
      </trkpt>
      <trkpt lat="48.60682" lon="1.96927">
        <ele>114.2</ele>
        <time>2026-02-17T09:40:56Z</time>
      </trkpt>
      <trkpt lat="48.60687" lon="1.96914">
        <ele>114.3</ele>
        <time>2026-02-17T09:41:02Z</time>
      </trkpt>
      <trkpt lat="48.6069" lon="1.96901">
        <ele>114.2</ele>
        <time>2026-02-17T09:41:08Z</time>
      </trkpt>
      <trkpt lat="48.60693" lon="1.96888">
        <ele>114.1</ele>
        <time>2026-02-17T09:41:14Z</time>
      </trkpt>
      <trkpt lat="48.60695" lon="1.96873">
        <ele>114</ele>
        <time>2026-02-17T09:41:21Z</time>
      </trkpt>
      <trkpt lat="48.60697" lon="1.96859">
        <ele>113.9</ele>
        <time>2026-02-17T09:41:28Z</time>
      </trkpt>
      <trkpt lat="48.60698" lon="1.96843">
        <ele>113.9</ele>
        <time>2026-02-17T09:41:35Z</time>
      </trkpt>
      <trkpt lat="48.60702" lon="1.96829">
        <ele>113.9</ele>
        <time>2026-02-17T09:41:42Z</time>
      </trkpt>
      <trkpt lat="48.60705" lon="1.96815">
        <ele>114.3</ele>
        <time>2026-02-17T09:41:49Z</time>
      </trkpt>
      <trkpt lat="48.60709" lon="1.96802">
        <ele>114.5</ele>
        <time>2026-02-17T09:41:57Z</time>
      </trkpt>
      <trkpt lat="48.60712" lon="1.96788">
        <ele>114.4</ele>
        <time>2026-02-17T09:42:05Z</time>
      </trkpt>
      <trkpt lat="48.60704" lon="1.9678">
        <ele>114.7</ele>
        <time>2026-02-17T09:42:14Z</time>
      </trkpt>
      <trkpt lat="48.60696" lon="1.96771">
        <ele>114.9</ele>
        <time>2026-02-17T09:42:21Z</time>
      </trkpt>
      <trkpt lat="48.60688" lon="1.96763">
        <ele>115.5</ele>
        <time>2026-02-17T09:42:28Z</time>
      </trkpt>
      <trkpt lat="48.60679" lon="1.96756">
        <ele>116.1</ele>
        <time>2026-02-17T09:42:35Z</time>
      </trkpt>
      <trkpt lat="48.60672" lon="1.96747">
        <ele>116.7</ele>
        <time>2026-02-17T09:42:42Z</time>
      </trkpt>
      <trkpt lat="48.60663" lon="1.96739">
        <ele>117.2</ele>
        <time>2026-02-17T09:42:49Z</time>
      </trkpt>
      <trkpt lat="48.60656" lon="1.96731">
        <ele>117.7</ele>
        <time>2026-02-17T09:42:56Z</time>
      </trkpt>
      <trkpt lat="48.60648" lon="1.96723">
        <ele>118.3</ele>
        <time>2026-02-17T09:43:03Z</time>
      </trkpt>
      <trkpt lat="48.6064" lon="1.96715">
        <ele>118.9</ele>
        <time>2026-02-17T09:43:10Z</time>
      </trkpt>
      <trkpt lat="48.60632" lon="1.96707">
        <ele>119.5</ele>
        <time>2026-02-17T09:43:17Z</time>
      </trkpt>
      <trkpt lat="48.60623" lon="1.96698">
        <ele>120.1</ele>
        <time>2026-02-17T09:43:25Z</time>
      </trkpt>
      <trkpt lat="48.60616" lon="1.9669">
        <ele>120.7</ele>
        <time>2026-02-17T09:43:32Z</time>
      </trkpt>
      <trkpt lat="48.60607" lon="1.96681">
        <ele>121.3</ele>
        <time>2026-02-17T09:43:39Z</time>
      </trkpt>
      <trkpt lat="48.60599" lon="1.96672">
        <ele>121.8</ele>
        <time>2026-02-17T09:43:46Z</time>
      </trkpt>
      <trkpt lat="48.60592" lon="1.96664">
        <ele>122.5</ele>
        <time>2026-02-17T09:43:52Z</time>
      </trkpt>
      <trkpt lat="48.60584" lon="1.96656">
        <ele>123.3</ele>
        <time>2026-02-17T09:43:59Z</time>
      </trkpt>
      <trkpt lat="48.60576" lon="1.9665">
        <ele>124.4</ele>
        <time>2026-02-17T09:44:06Z</time>
      </trkpt>
      <trkpt lat="48.60568" lon="1.96643">
        <ele>125.5</ele>
        <time>2026-02-17T09:44:12Z</time>
      </trkpt>
      <trkpt lat="48.60561" lon="1.96634">
        <ele>126.6</ele>
        <time>2026-02-17T09:44:19Z</time>
      </trkpt>
      <trkpt lat="48.60553" lon="1.96625">
        <ele>127.9</ele>
        <time>2026-02-17T09:44:26Z</time>
      </trkpt>
      <trkpt lat="48.60545" lon="1.96618">
        <ele>129.6</ele>
        <time>2026-02-17T09:44:34Z</time>
      </trkpt>
      <trkpt lat="48.60536" lon="1.96611">
        <ele>131.6</ele>
        <time>2026-02-17T09:44:42Z</time>
      </trkpt>
      <trkpt lat="48.60527" lon="1.96602">
        <ele>133.4</ele>
        <time>2026-02-17T09:44:50Z</time>
      </trkpt>
      <trkpt lat="48.60519" lon="1.96594">
        <ele>134.7</ele>
        <time>2026-02-17T09:44:59Z</time>
      </trkpt>
      <trkpt lat="48.60512" lon="1.96586">
        <ele>136.2</ele>
        <time>2026-02-17T09:45:09Z</time>
      </trkpt>
      <trkpt lat="48.60504" lon="1.96578">
        <ele>137.5</ele>
        <time>2026-02-17T09:45:22Z</time>
      </trkpt>
      <trkpt lat="48.60505" lon="1.96564">
        <ele>137.4</ele>
        <time>2026-02-17T09:45:43Z</time>
      </trkpt>
      <trkpt lat="48.605" lon="1.96576">
        <ele>138</ele>
        <time>2026-02-17T09:47:32Z</time>
      </trkpt>
      <trkpt lat="48.60493" lon="1.96588">
        <ele>138.2</ele>
        <time>2026-02-17T09:49:19Z</time>
      </trkpt>
      <trkpt lat="48.60489" lon="1.966">
        <ele>137.8</ele>
        <time>2026-02-17T09:49:26Z</time>
      </trkpt>
      <trkpt lat="48.60484" lon="1.96613">
        <ele>137.6</ele>
        <time>2026-02-17T09:49:32Z</time>
      </trkpt>
      <trkpt lat="48.60479" lon="1.96626">
        <ele>137.8</ele>
        <time>2026-02-17T09:49:39Z</time>
      </trkpt>
      <trkpt lat="48.60472" lon="1.96637">
        <ele>138.1</ele>
        <time>2026-02-17T09:49:46Z</time>
      </trkpt>
      <trkpt lat="48.60467" lon="1.96649">
        <ele>138.5</ele>
        <time>2026-02-17T09:49:53Z</time>
      </trkpt>
      <trkpt lat="48.60461" lon="1.96661">
        <ele>138.9</ele>
        <time>2026-02-17T09:50:00Z</time>
      </trkpt>
      <trkpt lat="48.60455" lon="1.96672">
        <ele>139.4</ele>
        <time>2026-02-17T09:50:07Z</time>
      </trkpt>
      <trkpt lat="48.60449" lon="1.96685">
        <ele>140.2</ele>
        <time>2026-02-17T09:50:15Z</time>
      </trkpt>
      <trkpt lat="48.60444" lon="1.96697">
        <ele>141</ele>
        <time>2026-02-17T09:50:22Z</time>
      </trkpt>
      <trkpt lat="48.60439" lon="1.96709">
        <ele>141.3</ele>
        <time>2026-02-17T09:50:29Z</time>
      </trkpt>
      <trkpt lat="48.60433" lon="1.96721">
        <ele>141.8</ele>
        <time>2026-02-17T09:50:36Z</time>
      </trkpt>
      <trkpt lat="48.60427" lon="1.96733">
        <ele>142.3</ele>
        <time>2026-02-17T09:50:43Z</time>
      </trkpt>
      <trkpt lat="48.60422" lon="1.96746">
        <ele>142.6</ele>
        <time>2026-02-17T09:50:50Z</time>
      </trkpt>
      <trkpt lat="48.60416" lon="1.96758">
        <ele>143</ele>
        <time>2026-02-17T09:50:57Z</time>
      </trkpt>
      <trkpt lat="48.6041" lon="1.96769">
        <ele>142.8</ele>
        <time>2026-02-17T09:51:04Z</time>
      </trkpt>
      <trkpt lat="48.60404" lon="1.96781">
        <ele>142.5</ele>
        <time>2026-02-17T09:51:12Z</time>
      </trkpt>
      <trkpt lat="48.60397" lon="1.96791">
        <ele>142.2</ele>
        <time>2026-02-17T09:51:20Z</time>
      </trkpt>
      <trkpt lat="48.6039" lon="1.96784">
        <ele>142</ele>
        <time>2026-02-17T09:51:27Z</time>
      </trkpt>
      <trkpt lat="48.60381" lon="1.96778">
        <ele>141.7</ele>
        <time>2026-02-17T09:51:34Z</time>
      </trkpt>
      <trkpt lat="48.60375" lon="1.96766">
        <ele>141.9</ele>
        <time>2026-02-17T09:51:41Z</time>
      </trkpt>
      <trkpt lat="48.60369" lon="1.96754">
        <ele>142.2</ele>
        <time>2026-02-17T09:51:48Z</time>
      </trkpt>
      <trkpt lat="48.60362" lon="1.96745">
        <ele>142</ele>
        <time>2026-02-17T09:51:55Z</time>
      </trkpt>
      <trkpt lat="48.60358" lon="1.96732">
        <ele>141.7</ele>
        <time>2026-02-17T09:52:02Z</time>
      </trkpt>
      <trkpt lat="48.60348" lon="1.96729">
        <ele>140.9</ele>
        <time>2026-02-17T09:52:10Z</time>
      </trkpt>
      <trkpt lat="48.60339" lon="1.96729">
        <ele>140.2</ele>
        <time>2026-02-17T09:52:17Z</time>
      </trkpt>
      <trkpt lat="48.6033" lon="1.96721">
        <ele>139.4</ele>
        <time>2026-02-17T09:52:24Z</time>
      </trkpt>
      <trkpt lat="48.60322" lon="1.96714">
        <ele>138.1</ele>
        <time>2026-02-17T09:52:31Z</time>
      </trkpt>
      <trkpt lat="48.60318" lon="1.967">
        <ele>137.7</ele>
        <time>2026-02-17T09:52:39Z</time>
      </trkpt>
      <trkpt lat="48.60314" lon="1.96686">
        <ele>137.5</ele>
        <time>2026-02-17T09:52:48Z</time>
      </trkpt>
      <trkpt lat="48.60309" lon="1.96673">
        <ele>137.3</ele>
        <time>2026-02-17T09:52:56Z</time>
      </trkpt>
      <trkpt lat="48.60306" lon="1.96659">
        <ele>137.3</ele>
        <time>2026-02-17T09:53:03Z</time>
      </trkpt>
      <trkpt lat="48.60299" lon="1.9665">
        <ele>136.7</ele>
        <time>2026-02-17T09:53:10Z</time>
      </trkpt>
      <trkpt lat="48.60298" lon="1.96636">
        <ele>137</ele>
        <time>2026-02-17T09:53:16Z</time>
      </trkpt>
      <trkpt lat="48.60296" lon="1.96621">
        <ele>137.3</ele>
        <time>2026-02-17T09:53:23Z</time>
      </trkpt>
      <trkpt lat="48.60297" lon="1.96607">
        <ele>137.7</ele>
        <time>2026-02-17T09:53:30Z</time>
      </trkpt>
      <trkpt lat="48.60296" lon="1.96593">
        <ele>137.7</ele>
        <time>2026-02-17T09:53:38Z</time>
      </trkpt>
      <trkpt lat="48.60299" lon="1.96578">
        <ele>138.2</ele>
        <time>2026-02-17T09:53:46Z</time>
      </trkpt>
      <trkpt lat="48.60296" lon="1.96565">
        <ele>138.3</ele>
        <time>2026-02-17T09:53:53Z</time>
      </trkpt>
      <trkpt lat="48.60295" lon="1.9655">
        <ele>138.6</ele>
        <time>2026-02-17T09:54:00Z</time>
      </trkpt>
      <trkpt lat="48.60297" lon="1.96535">
        <ele>138.9</ele>
        <time>2026-02-17T09:54:08Z</time>
      </trkpt>
      <trkpt lat="48.60294" lon="1.9652">
        <ele>139</ele>
        <time>2026-02-17T09:54:17Z</time>
      </trkpt>
      <trkpt lat="48.60294" lon="1.96505">
        <ele>139.2</ele>
        <time>2026-02-17T09:54:25Z</time>
      </trkpt>
      <trkpt lat="48.60292" lon="1.9649">
        <ele>139.3</ele>
        <time>2026-02-17T09:54:33Z</time>
      </trkpt>
      <trkpt lat="48.60289" lon="1.96476">
        <ele>139.1</ele>
        <time>2026-02-17T09:54:40Z</time>
      </trkpt>
      <trkpt lat="48.60281" lon="1.96468">
        <ele>138.3</ele>
        <time>2026-02-17T09:54:48Z</time>
      </trkpt>
      <trkpt lat="48.60276" lon="1.96455">
        <ele>137.9</ele>
        <time>2026-02-17T09:54:55Z</time>
      </trkpt>
      <trkpt lat="48.60277" lon="1.9644">
        <ele>137.9</ele>
        <time>2026-02-17T09:55:02Z</time>
      </trkpt>
      <trkpt lat="48.60278" lon="1.96425">
        <ele>138</ele>
        <time>2026-02-17T09:55:12Z</time>
      </trkpt>
      <trkpt lat="48.60284" lon="1.96414">
        <ele>138.6</ele>
        <time>2026-02-17T09:55:25Z</time>
      </trkpt>
      <trkpt lat="48.60288" lon="1.96401">
        <ele>138.9</ele>
        <time>2026-02-17T09:55:34Z</time>
      </trkpt>
      <trkpt lat="48.60295" lon="1.96389">
        <ele>139.3</ele>
        <time>2026-02-17T09:55:43Z</time>
      </trkpt>
      <trkpt lat="48.60297" lon="1.96376">
        <ele>139.4</ele>
        <time>2026-02-17T09:55:52Z</time>
      </trkpt>
      <trkpt lat="48.6029" lon="1.96368">
        <ele>138.9</ele>
        <time>2026-02-17T09:56:01Z</time>
      </trkpt>
      <trkpt lat="48.60282" lon="1.96361">
        <ele>138.3</ele>
        <time>2026-02-17T09:56:08Z</time>
      </trkpt>
      <trkpt lat="48.60274" lon="1.96352">
        <ele>138.3</ele>
        <time>2026-02-17T09:56:15Z</time>
      </trkpt>
      <trkpt lat="48.60267" lon="1.96343">
        <ele>138.7</ele>
        <time>2026-02-17T09:56:22Z</time>
      </trkpt>
      <trkpt lat="48.60259" lon="1.96333">
        <ele>139</ele>
        <time>2026-02-17T09:56:29Z</time>
      </trkpt>
      <trkpt lat="48.60251" lon="1.96325">
        <ele>139.3</ele>
        <time>2026-02-17T09:56:36Z</time>
      </trkpt>
      <trkpt lat="48.60242" lon="1.96316">
        <ele>139.6</ele>
        <time>2026-02-17T09:56:43Z</time>
      </trkpt>
      <trkpt lat="48.60234" lon="1.96308">
        <ele>139.9</ele>
        <time>2026-02-17T09:56:51Z</time>
      </trkpt>
      <trkpt lat="48.60226" lon="1.96301">
        <ele>140</ele>
        <time>2026-02-17T09:56:59Z</time>
      </trkpt>
      <trkpt lat="48.60219" lon="1.96293">
        <ele>139.6</ele>
        <time>2026-02-17T09:57:07Z</time>
      </trkpt>
      <trkpt lat="48.6021" lon="1.96285">
        <ele>138.7</ele>
        <time>2026-02-17T09:57:15Z</time>
      </trkpt>
      <trkpt lat="48.60202" lon="1.96277">
        <ele>137.9</ele>
        <time>2026-02-17T09:57:25Z</time>
      </trkpt>
      <trkpt lat="48.60194" lon="1.96269">
        <ele>137.3</ele>
        <time>2026-02-17T09:57:34Z</time>
      </trkpt>
      <trkpt lat="48.60185" lon="1.96262">
        <ele>136.5</ele>
        <time>2026-02-17T09:57:42Z</time>
      </trkpt>
      <trkpt lat="48.60177" lon="1.96252">
        <ele>135.5</ele>
        <time>2026-02-17T09:57:49Z</time>
      </trkpt>
      <trkpt lat="48.60168" lon="1.96245">
        <ele>133.9</ele>
        <time>2026-02-17T09:57:57Z</time>
      </trkpt>
      <trkpt lat="48.6016" lon="1.96236">
        <ele>132.5</ele>
        <time>2026-02-17T09:58:05Z</time>
      </trkpt>
      <trkpt lat="48.60152" lon="1.96228">
        <ele>131.4</ele>
        <time>2026-02-17T09:58:13Z</time>
      </trkpt>
      <trkpt lat="48.60146" lon="1.96217">
        <ele>130.3</ele>
        <time>2026-02-17T09:58:20Z</time>
      </trkpt>
      <trkpt lat="48.60145" lon="1.96203">
        <ele>129.6</ele>
        <time>2026-02-17T09:58:26Z</time>
      </trkpt>
      <trkpt lat="48.60148" lon="1.96188">
        <ele>129.3</ele>
        <time>2026-02-17T09:58:33Z</time>
      </trkpt>
      <trkpt lat="48.6015" lon="1.96173">
        <ele>129.1</ele>
        <time>2026-02-17T09:58:40Z</time>
      </trkpt>
      <trkpt lat="48.6015" lon="1.96158">
        <ele>128.6</ele>
        <time>2026-02-17T09:58:47Z</time>
      </trkpt>
      <trkpt lat="48.60151" lon="1.96144">
        <ele>128.1</ele>
        <time>2026-02-17T09:58:53Z</time>
      </trkpt>
      <trkpt lat="48.60152" lon="1.96129">
        <ele>127.6</ele>
        <time>2026-02-17T09:59:00Z</time>
      </trkpt>
      <trkpt lat="48.60152" lon="1.96115">
        <ele>127.1</ele>
        <time>2026-02-17T09:59:07Z</time>
      </trkpt>
      <trkpt lat="48.60152" lon="1.96101">
        <ele>126.6</ele>
        <time>2026-02-17T09:59:13Z</time>
      </trkpt>
      <trkpt lat="48.60153" lon="1.96086">
        <ele>126.1</ele>
        <time>2026-02-17T09:59:20Z</time>
      </trkpt>
      <trkpt lat="48.60152" lon="1.96073">
        <ele>125.4</ele>
        <time>2026-02-17T09:59:27Z</time>
      </trkpt>
      <trkpt lat="48.60153" lon="1.96059">
        <ele>124.7</ele>
        <time>2026-02-17T09:59:34Z</time>
      </trkpt>
      <trkpt lat="48.60153" lon="1.96044">
        <ele>124.1</ele>
        <time>2026-02-17T09:59:41Z</time>
      </trkpt>
      <trkpt lat="48.60156" lon="1.9603">
        <ele>123.9</ele>
        <time>2026-02-17T09:59:48Z</time>
      </trkpt>
      <trkpt lat="48.60161" lon="1.96017">
        <ele>124</ele>
        <time>2026-02-17T09:59:55Z</time>
      </trkpt>
      <trkpt lat="48.60168" lon="1.96006">
        <ele>124.3</ele>
        <time>2026-02-17T10:00:03Z</time>
      </trkpt>
      <trkpt lat="48.60175" lon="1.95997">
        <ele>124.6</ele>
        <time>2026-02-17T10:00:10Z</time>
      </trkpt>
      <trkpt lat="48.60181" lon="1.95986">
        <ele>123.8</ele>
        <time>2026-02-17T10:00:17Z</time>
      </trkpt>
      <trkpt lat="48.60186" lon="1.95974">
        <ele>122.6</ele>
        <time>2026-02-17T10:00:25Z</time>
      </trkpt>
      <trkpt lat="48.60191" lon="1.95962">
        <ele>122.1</ele>
        <time>2026-02-17T10:00:32Z</time>
      </trkpt>
      <trkpt lat="48.60197" lon="1.95951">
        <ele>121.4</ele>
        <time>2026-02-17T10:00:39Z</time>
      </trkpt>
      <trkpt lat="48.60203" lon="1.95939">
        <ele>120.1</ele>
        <time>2026-02-17T10:00:46Z</time>
      </trkpt>
      <trkpt lat="48.60208" lon="1.95926">
        <ele>118.6</ele>
        <time>2026-02-17T10:00:53Z</time>
      </trkpt>
      <trkpt lat="48.60214" lon="1.95915">
        <ele>117.2</ele>
        <time>2026-02-17T10:01:01Z</time>
      </trkpt>
      <trkpt lat="48.60221" lon="1.95903">
        <ele>116.1</ele>
        <time>2026-02-17T10:01:09Z</time>
      </trkpt>
      <trkpt lat="48.60226" lon="1.95891">
        <ele>115</ele>
        <time>2026-02-17T10:01:17Z</time>
      </trkpt>
      <trkpt lat="48.60232" lon="1.9588">
        <ele>114.3</ele>
        <time>2026-02-17T10:01:27Z</time>
      </trkpt>
      <trkpt lat="48.60237" lon="1.95867">
        <ele>113.7</ele>
        <time>2026-02-17T10:01:35Z</time>
      </trkpt>
      <trkpt lat="48.60242" lon="1.95855">
        <ele>113.2</ele>
        <time>2026-02-17T10:01:43Z</time>
      </trkpt>
      <trkpt lat="48.60247" lon="1.95842">
        <ele>113</ele>
        <time>2026-02-17T10:01:51Z</time>
      </trkpt>
      <trkpt lat="48.60253" lon="1.95832">
        <ele>112.8</ele>
        <time>2026-02-17T10:01:58Z</time>
      </trkpt>
      <trkpt lat="48.60259" lon="1.95822">
        <ele>112.3</ele>
        <time>2026-02-17T10:02:05Z</time>
      </trkpt>
      <trkpt lat="48.60265" lon="1.9581">
        <ele>111.6</ele>
        <time>2026-02-17T10:02:12Z</time>
      </trkpt>
      <trkpt lat="48.60272" lon="1.95798">
        <ele>111.2</ele>
        <time>2026-02-17T10:02:19Z</time>
      </trkpt>
      <trkpt lat="48.60281" lon="1.95796">
        <ele>111</ele>
        <time>2026-02-17T10:02:25Z</time>
      </trkpt>
      <trkpt lat="48.6029" lon="1.95801">
        <ele>110.9</ele>
        <time>2026-02-17T10:02:31Z</time>
      </trkpt>
      <trkpt lat="48.60299" lon="1.95809">
        <ele>111</ele>
        <time>2026-02-17T10:02:37Z</time>
      </trkpt>
      <trkpt lat="48.60306" lon="1.9582">
        <ele>111</ele>
        <time>2026-02-17T10:02:43Z</time>
      </trkpt>
      <trkpt lat="48.60314" lon="1.95829">
        <ele>111</ele>
        <time>2026-02-17T10:02:49Z</time>
      </trkpt>
      <trkpt lat="48.60322" lon="1.95833">
        <ele>111</ele>
        <time>2026-02-17T10:02:55Z</time>
      </trkpt>
      <trkpt lat="48.60332" lon="1.95836">
        <ele>111.1</ele>
        <time>2026-02-17T10:03:02Z</time>
      </trkpt>
      <trkpt lat="48.60336" lon="1.95849">
        <ele>111.5</ele>
        <time>2026-02-17T10:03:11Z</time>
      </trkpt>
      <trkpt lat="48.60344" lon="1.95858">
        <ele>111.5</ele>
        <time>2026-02-17T10:03:17Z</time>
      </trkpt>
      <trkpt lat="48.60353" lon="1.9586">
        <ele>111.3</ele>
        <time>2026-02-17T10:03:23Z</time>
      </trkpt>
      <trkpt lat="48.60363" lon="1.95862">
        <ele>111</ele>
        <time>2026-02-17T10:03:29Z</time>
      </trkpt>
      <trkpt lat="48.60372" lon="1.95864">
        <ele>111.2</ele>
        <time>2026-02-17T10:03:35Z</time>
      </trkpt>
      <trkpt lat="48.60382" lon="1.95863">
        <ele>111.1</ele>
        <time>2026-02-17T10:03:44Z</time>
      </trkpt>
      <trkpt lat="48.60391" lon="1.95866">
        <ele>111.1</ele>
        <time>2026-02-17T10:03:51Z</time>
      </trkpt>
      <trkpt lat="48.60401" lon="1.95867">
        <ele>110.8</ele>
        <time>2026-02-17T10:03:58Z</time>
      </trkpt>
      <trkpt lat="48.60412" lon="1.95869">
        <ele>110.7</ele>
        <time>2026-02-17T10:04:05Z</time>
      </trkpt>
      <trkpt lat="48.60421" lon="1.95869">
        <ele>110.4</ele>
        <time>2026-02-17T10:04:11Z</time>
      </trkpt>
      <trkpt lat="48.6043" lon="1.95872">
        <ele>110.3</ele>
        <time>2026-02-17T10:04:18Z</time>
      </trkpt>
      <trkpt lat="48.6044" lon="1.95874">
        <ele>110.1</ele>
        <time>2026-02-17T10:04:26Z</time>
      </trkpt>
      <trkpt lat="48.6045" lon="1.95874">
        <ele>109.9</ele>
        <time>2026-02-17T10:04:34Z</time>
      </trkpt>
      <trkpt lat="48.6046" lon="1.95876">
        <ele>110.1</ele>
        <time>2026-02-17T10:04:41Z</time>
      </trkpt>
      <trkpt lat="48.60469" lon="1.9588">
        <ele>110.4</ele>
        <time>2026-02-17T10:04:47Z</time>
      </trkpt>
      <trkpt lat="48.60478" lon="1.95884">
        <ele>110.2</ele>
        <time>2026-02-17T10:04:54Z</time>
      </trkpt>
      <trkpt lat="48.60488" lon="1.9589">
        <ele>109.9</ele>
        <time>2026-02-17T10:05:01Z</time>
      </trkpt>
      <trkpt lat="48.60496" lon="1.95895">
        <ele>109.7</ele>
        <time>2026-02-17T10:05:08Z</time>
      </trkpt>
      <trkpt lat="48.60505" lon="1.959">
        <ele>109.6</ele>
        <time>2026-02-17T10:05:15Z</time>
      </trkpt>
      <trkpt lat="48.60514" lon="1.95907">
        <ele>109.8</ele>
        <time>2026-02-17T10:05:22Z</time>
      </trkpt>
      <trkpt lat="48.6052" lon="1.95918">
        <ele>110.3</ele>
        <time>2026-02-17T10:05:29Z</time>
      </trkpt>
      <trkpt lat="48.60528" lon="1.95925">
        <ele>110.3</ele>
        <time>2026-02-17T10:05:36Z</time>
      </trkpt>
      <trkpt lat="48.60537" lon="1.95932">
        <ele>109.9</ele>
        <time>2026-02-17T10:05:43Z</time>
      </trkpt>
      <trkpt lat="48.60545" lon="1.9594">
        <ele>109.6</ele>
        <time>2026-02-17T10:05:49Z</time>
      </trkpt>
      <trkpt lat="48.60553" lon="1.95948">
        <ele>109.5</ele>
        <time>2026-02-17T10:05:56Z</time>
      </trkpt>
      <trkpt lat="48.60562" lon="1.95954">
        <ele>109.3</ele>
        <time>2026-02-17T10:06:04Z</time>
      </trkpt>
      <trkpt lat="48.60571" lon="1.95962">
        <ele>109</ele>
        <time>2026-02-17T10:06:11Z</time>
      </trkpt>
      <trkpt lat="48.60578" lon="1.95972">
        <ele>108.6</ele>
        <time>2026-02-17T10:06:18Z</time>
      </trkpt>
      <trkpt lat="48.60587" lon="1.95981">
        <ele>108.5</ele>
        <time>2026-02-17T10:06:26Z</time>
      </trkpt>
      <trkpt lat="48.60595" lon="1.9599">
        <ele>108.8</ele>
        <time>2026-02-17T10:06:33Z</time>
      </trkpt>
      <trkpt lat="48.60603" lon="1.95998">
        <ele>109.1</ele>
        <time>2026-02-17T10:06:40Z</time>
      </trkpt>
      <trkpt lat="48.60611" lon="1.96006">
        <ele>109.5</ele>
        <time>2026-02-17T10:06:48Z</time>
      </trkpt>
      <trkpt lat="48.6062" lon="1.96013">
        <ele>109.9</ele>
        <time>2026-02-17T10:06:56Z</time>
      </trkpt>
      <trkpt lat="48.60629" lon="1.96016">
        <ele>110.2</ele>
        <time>2026-02-17T10:07:04Z</time>
      </trkpt>
      <trkpt lat="48.60638" lon="1.96015">
        <ele>110.1</ele>
        <time>2026-02-17T10:07:13Z</time>
      </trkpt>
      <trkpt lat="48.60645" lon="1.96004">
        <ele>109.3</ele>
        <time>2026-02-17T10:07:20Z</time>
      </trkpt>
      <trkpt lat="48.60653" lon="1.95999">
        <ele>109</ele>
        <time>2026-02-17T10:07:27Z</time>
      </trkpt>
      <trkpt lat="48.60663" lon="1.95995">
        <ele>108.6</ele>
        <time>2026-02-17T10:07:34Z</time>
      </trkpt>
      <trkpt lat="48.6067" lon="1.95986">
        <ele>108</ele>
        <time>2026-02-17T10:07:40Z</time>
      </trkpt>
      <trkpt lat="48.60674" lon="1.95973">
        <ele>107</ele>
        <time>2026-02-17T10:07:48Z</time>
      </trkpt>
      <trkpt lat="48.60674" lon="1.95957">
        <ele>107</ele>
        <time>2026-02-17T10:07:55Z</time>
      </trkpt>
      <trkpt lat="48.6067" lon="1.95944">
        <ele>107</ele>
        <time>2026-02-17T10:08:02Z</time>
      </trkpt>
      <trkpt lat="48.60666" lon="1.95932">
        <ele>107</ele>
        <time>2026-02-17T10:08:26Z</time>
      </trkpt>
      <trkpt lat="48.60665" lon="1.95918">
        <ele>107</ele>
        <time>2026-02-17T10:08:33Z</time>
      </trkpt>
      <trkpt lat="48.60672" lon="1.95908">
        <ele>107</ele>
        <time>2026-02-17T10:08:40Z</time>
      </trkpt>
      <trkpt lat="48.60678" lon="1.95899">
        <ele>107</ele>
        <time>2026-02-17T10:08:49Z</time>
      </trkpt>
      <trkpt lat="48.60687" lon="1.95893">
        <ele>107</ele>
        <time>2026-02-17T10:09:06Z</time>
      </trkpt>
      <trkpt lat="48.60691" lon="1.95879">
        <ele>107</ele>
        <time>2026-02-17T10:09:12Z</time>
      </trkpt>
      <trkpt lat="48.60696" lon="1.95866">
        <ele>106.9</ele>
        <time>2026-02-17T10:09:20Z</time>
      </trkpt>
      <trkpt lat="48.60697" lon="1.9585">
        <ele>106.9</ele>
        <time>2026-02-17T10:09:26Z</time>
      </trkpt>
      <trkpt lat="48.60696" lon="1.95835">
        <ele>106.9</ele>
        <time>2026-02-17T10:09:33Z</time>
      </trkpt>
      <trkpt lat="48.60695" lon="1.9582">
        <ele>107</ele>
        <time>2026-02-17T10:09:41Z</time>
      </trkpt>
      <trkpt lat="48.60689" lon="1.95808">
        <ele>107.2</ele>
        <time>2026-02-17T10:09:50Z</time>
      </trkpt>
      <trkpt lat="48.60692" lon="1.95795">
        <ele>107.4</ele>
        <time>2026-02-17T10:09:56Z</time>
      </trkpt>
      <trkpt lat="48.60696" lon="1.95784">
        <ele>107.7</ele>
        <time>2026-02-17T10:10:02Z</time>
      </trkpt>
      <trkpt lat="48.60701" lon="1.9577">
        <ele>107.8</ele>
        <time>2026-02-17T10:10:09Z</time>
      </trkpt>
      <trkpt lat="48.60701" lon="1.95755">
        <ele>107.8</ele>
        <time>2026-02-17T10:10:17Z</time>
      </trkpt>
      <trkpt lat="48.60694" lon="1.95744">
        <ele>108</ele>
        <time>2026-02-17T10:10:25Z</time>
      </trkpt>
      <trkpt lat="48.60689" lon="1.95731">
        <ele>108</ele>
        <time>2026-02-17T10:10:33Z</time>
      </trkpt>
      <trkpt lat="48.60688" lon="1.95716">
        <ele>108</ele>
        <time>2026-02-17T10:10:41Z</time>
      </trkpt>
      <trkpt lat="48.60686" lon="1.95702">
        <ele>108</ele>
        <time>2026-02-17T10:10:48Z</time>
      </trkpt>
      <trkpt lat="48.60686" lon="1.95687">
        <ele>108</ele>
        <time>2026-02-17T10:10:55Z</time>
      </trkpt>
      <trkpt lat="48.60686" lon="1.95672">
        <ele>108</ele>
        <time>2026-02-17T10:11:04Z</time>
      </trkpt>
      <trkpt lat="48.60682" lon="1.95659">
        <ele>107.8</ele>
        <time>2026-02-17T10:11:12Z</time>
      </trkpt>
      <trkpt lat="48.60673" lon="1.95653">
        <ele>107.9</ele>
        <time>2026-02-17T10:11:20Z</time>
      </trkpt>
      <trkpt lat="48.60663" lon="1.95652">
        <ele>108</ele>
        <time>2026-02-17T10:11:28Z</time>
      </trkpt>
      <trkpt lat="48.60653" lon="1.95649">
        <ele>108</ele>
        <time>2026-02-17T10:11:37Z</time>
      </trkpt>
      <trkpt lat="48.60645" lon="1.95641">
        <ele>108</ele>
        <time>2026-02-17T10:11:45Z</time>
      </trkpt>
      <trkpt lat="48.60635" lon="1.95637">
        <ele>108</ele>
        <time>2026-02-17T10:11:52Z</time>
      </trkpt>
      <trkpt lat="48.6063" lon="1.95626">
        <ele>108</ele>
        <time>2026-02-17T10:11:58Z</time>
      </trkpt>
      <trkpt lat="48.60626" lon="1.95614">
        <ele>108</ele>
        <time>2026-02-17T10:12:04Z</time>
      </trkpt>
      <trkpt lat="48.60619" lon="1.95603">
        <ele>108</ele>
        <time>2026-02-17T10:12:12Z</time>
      </trkpt>
      <trkpt lat="48.60611" lon="1.95595">
        <ele>108</ele>
        <time>2026-02-17T10:12:19Z</time>
      </trkpt>
      <trkpt lat="48.60605" lon="1.95584">
        <ele>108.2</ele>
        <time>2026-02-17T10:12:26Z</time>
      </trkpt>
      <trkpt lat="48.606" lon="1.9557">
        <ele>108.4</ele>
        <time>2026-02-17T10:12:34Z</time>
      </trkpt>
      <trkpt lat="48.60602" lon="1.95555">
        <ele>108.4</ele>
        <time>2026-02-17T10:12:41Z</time>
      </trkpt>
      <trkpt lat="48.60602" lon="1.95539">
        <ele>108.7</ele>
        <time>2026-02-17T10:12:48Z</time>
      </trkpt>
      <trkpt lat="48.60602" lon="1.95525">
        <ele>109</ele>
        <time>2026-02-17T10:12:55Z</time>
      </trkpt>
      <trkpt lat="48.60602" lon="1.9551">
        <ele>109</ele>
        <time>2026-02-17T10:13:03Z</time>
      </trkpt>
      <trkpt lat="48.60601" lon="1.95496">
        <ele>109</ele>
        <time>2026-02-17T10:13:10Z</time>
      </trkpt>
      <trkpt lat="48.60603" lon="1.95483">
        <ele>109</ele>
        <time>2026-02-17T10:13:21Z</time>
      </trkpt>
      <trkpt lat="48.60599" lon="1.95468">
        <ele>109</ele>
        <time>2026-02-17T10:13:28Z</time>
      </trkpt>
      <trkpt lat="48.60596" lon="1.95455">
        <ele>109</ele>
        <time>2026-02-17T10:13:34Z</time>
      </trkpt>
      <trkpt lat="48.60593" lon="1.9544">
        <ele>109</ele>
        <time>2026-02-17T10:13:41Z</time>
      </trkpt>
      <trkpt lat="48.6059" lon="1.95426">
        <ele>109</ele>
        <time>2026-02-17T10:13:49Z</time>
      </trkpt>
      <trkpt lat="48.60586" lon="1.95414">
        <ele>109</ele>
        <time>2026-02-17T10:13:55Z</time>
      </trkpt>
      <trkpt lat="48.60585" lon="1.954">
        <ele>109</ele>
        <time>2026-02-17T10:14:02Z</time>
      </trkpt>
      <trkpt lat="48.60583" lon="1.95384">
        <ele>109</ele>
        <time>2026-02-17T10:14:10Z</time>
      </trkpt>
      <trkpt lat="48.6058" lon="1.95371">
        <ele>109.1</ele>
        <time>2026-02-17T10:14:17Z</time>
      </trkpt>
      <trkpt lat="48.60581" lon="1.95357">
        <ele>109.2</ele>
        <time>2026-02-17T10:14:24Z</time>
      </trkpt>
      <trkpt lat="48.60578" lon="1.95343">
        <ele>109.7</ele>
        <time>2026-02-17T10:14:31Z</time>
      </trkpt>
      <trkpt lat="48.60574" lon="1.9533">
        <ele>110</ele>
        <time>2026-02-17T10:14:38Z</time>
      </trkpt>
      <trkpt lat="48.60571" lon="1.95317">
        <ele>110</ele>
        <time>2026-02-17T10:14:45Z</time>
      </trkpt>
      <trkpt lat="48.60569" lon="1.95303">
        <ele>110</ele>
        <time>2026-02-17T10:14:52Z</time>
      </trkpt>
      <trkpt lat="48.60569" lon="1.95288">
        <ele>110.3</ele>
        <time>2026-02-17T10:14:59Z</time>
      </trkpt>
      <trkpt lat="48.60569" lon="1.95273">
        <ele>110.6</ele>
        <time>2026-02-17T10:15:06Z</time>
      </trkpt>
      <trkpt lat="48.60569" lon="1.95258">
        <ele>110.9</ele>
        <time>2026-02-17T10:15:14Z</time>
      </trkpt>
      <trkpt lat="48.60571" lon="1.95244">
        <ele>111</ele>
        <time>2026-02-17T10:15:21Z</time>
      </trkpt>
      <trkpt lat="48.60571" lon="1.9523">
        <ele>111</ele>
        <time>2026-02-17T10:15:28Z</time>
      </trkpt>
      <trkpt lat="48.60571" lon="1.95216">
        <ele>111</ele>
        <time>2026-02-17T10:15:36Z</time>
      </trkpt>
      <trkpt lat="48.6057" lon="1.95201">
        <ele>111</ele>
        <time>2026-02-17T10:15:44Z</time>
      </trkpt>
      <trkpt lat="48.60569" lon="1.95185">
        <ele>111</ele>
        <time>2026-02-17T10:15:51Z</time>
      </trkpt>
      <trkpt lat="48.60572" lon="1.95171">
        <ele>111</ele>
        <time>2026-02-17T10:15:58Z</time>
      </trkpt>
      <trkpt lat="48.60578" lon="1.9516">
        <ele>111</ele>
        <time>2026-02-17T10:16:05Z</time>
      </trkpt>
      <trkpt lat="48.60585" lon="1.95148">
        <ele>111</ele>
        <time>2026-02-17T10:16:12Z</time>
      </trkpt>
      <trkpt lat="48.60591" lon="1.95137">
        <ele>111</ele>
        <time>2026-02-17T10:16:19Z</time>
      </trkpt>
      <trkpt lat="48.60597" lon="1.95125">
        <ele>111</ele>
        <time>2026-02-17T10:16:27Z</time>
      </trkpt>
      <trkpt lat="48.60604" lon="1.95114">
        <ele>111</ele>
        <time>2026-02-17T10:16:34Z</time>
      </trkpt>
      <trkpt lat="48.6061" lon="1.951">
        <ele>111</ele>
        <time>2026-02-17T10:16:41Z</time>
      </trkpt>
      <trkpt lat="48.60616" lon="1.95088">
        <ele>111</ele>
        <time>2026-02-17T10:16:48Z</time>
      </trkpt>
      <trkpt lat="48.60623" lon="1.95078">
        <ele>111</ele>
        <time>2026-02-17T10:16:55Z</time>
      </trkpt>
      <trkpt lat="48.60629" lon="1.95066">
        <ele>111</ele>
        <time>2026-02-17T10:17:02Z</time>
      </trkpt>
      <trkpt lat="48.60634" lon="1.95054">
        <ele>111</ele>
        <time>2026-02-17T10:17:09Z</time>
      </trkpt>
      <trkpt lat="48.6064" lon="1.95041">
        <ele>111</ele>
        <time>2026-02-17T10:17:16Z</time>
      </trkpt>
      <trkpt lat="48.60646" lon="1.9503">
        <ele>111</ele>
        <time>2026-02-17T10:17:23Z</time>
      </trkpt>
      <trkpt lat="48.60652" lon="1.95018">
        <ele>111</ele>
        <time>2026-02-17T10:17:30Z</time>
      </trkpt>
      <trkpt lat="48.60658" lon="1.95006">
        <ele>111</ele>
        <time>2026-02-17T10:17:37Z</time>
      </trkpt>
      <trkpt lat="48.60663" lon="1.94995">
        <ele>111</ele>
        <time>2026-02-17T10:17:44Z</time>
      </trkpt>
      <trkpt lat="48.60668" lon="1.94981">
        <ele>111</ele>
        <time>2026-02-17T10:17:52Z</time>
      </trkpt>
      <trkpt lat="48.60673" lon="1.94969">
        <ele>111</ele>
        <time>2026-02-17T10:18:00Z</time>
      </trkpt>
    </trkseg>
  </trk>
</gpx>